Wetterdaten: Sonntag, 09.07.2023
Datum Zeit Temp. Aussen Temp. o. S. Temp +5cm Feuchte Auss Luftdruck Regen Sonnenschein Regendauer Solar Windben Empfang
09.07.2023 00:00 25,7 C 23,9 C 21,1 C 64 % 1017,6 hPa 0,0 l/m 0 min 0 min 0 W/m 6,4 km/h (2 Bft) 95,74 %
09.07.2023 00:02 25,7 C 23,9 C 21,1 C 64 % 1017,6 hPa 0,0 l/m 0 min 0 min 0 W/m 6,4 km/h (2 Bft) 90,91 %
09.07.2023 00:04 25,6 C 23,9 C 21,1 C 64 % 1017,6 hPa 0,0 l/m 0 min 0 min 0 W/m 6,4 km/h (2 Bft) 93,88 %
09.07.2023 00:08 25,5 C 23,9 C 21,1 C 65 % 1017,6 hPa 0,0 l/m 0 min 0 min 0 W/m 12,9 km/h (3 Bft) 98,94 %
09.07.2023 00:10 25,4 C 23,9 C 21,1 C 65 % 1017,6 hPa 0,0 l/m 0 min 0 min 0 W/m 6,4 km/h (2 Bft) 100,00 %
09.07.2023 00:12 25,4 C 23,9 C 20,6 C 65 % 1017,6 hPa 0,0 l/m 0 min 0 min 0 W/m 6,4 km/h (2 Bft) 97,87 %
09.07.2023 00:14 25,3 C 23,9 C 20,6 C 65 % 1017,6 hPa 0,0 l/m 0 min 0 min 0 W/m 3,2 km/h (1 Bft) 100,00 %
09.07.2023 00:16 25,3 C 23,9 C 20,6 C 65 % 1017,6 hPa 0,0 l/m 0 min 0 min 0 W/m 6,4 km/h (2 Bft) 97,83 %
09.07.2023 00:18 25,3 C 23,9 C 20,6 C 65 % 1017,7 hPa 0,0 l/m 0 min 0 min 0 W/m 9,7 km/h (2 Bft) 100,00 %
09.07.2023 00:20 25,2 C 23,9 C 20,6 C 65 % 1017,7 hPa 0,0 l/m 0 min 0 min 0 W/m 6,4 km/h (2 Bft) 100,00 %
09.07.2023 00:22 25,2 C 23,9 C 20,6 C 65 % 1017,8 hPa 0,0 l/m 0 min 0 min 0 W/m 6,4 km/h (2 Bft) 100,00 %
09.07.2023 00:24 25,2 C 23,9 C 20,6 C 65 % 1017,8 hPa 0,0 l/m 0 min 0 min 0 W/m 6,4 km/h (2 Bft) 100,00 %
09.07.2023 00:26 25,2 C 23,9 C 20,6 C 66 % 1017,9 hPa 0,0 l/m 0 min 0 min 0 W/m 6,4 km/h (2 Bft) 97,87 %
09.07.2023 00:28 25,1 C 23,9 C 20,6 C 66 % 1017,9 hPa 0,0 l/m 0 min 0 min 0 W/m 6,4 km/h (2 Bft) 100,00 %
09.07.2023 00:30 25,1 C 23,9 C 20,6 C 66 % 1017,9 hPa 0,0 l/m 0 min 0 min 0 W/m 12,9 km/h (3 Bft) 100,00 %
09.07.2023 00:32 25,1 C 23,9 C 20,6 C 66 % 1018,0 hPa 0,0 l/m 0 min 0 min 0 W/m 6,4 km/h (2 Bft) 100,00 %
09.07.2023 00:34 25,1 C 23,9 C 20,6 C 66 % 1017,9 hPa 0,0 l/m 0 min 0 min 0 W/m 3,2 km/h (1 Bft) 100,00 %
09.07.2023 00:36 25,0 C 23,9 C 20,6 C 66 % 1017,9 hPa 0,0 l/m 0 min 0 min 0 W/m 12,9 km/h (3 Bft) 100,00 %
09.07.2023 00:38 25,0 C 23,9 C 20,6 C 66 % 1017,8 hPa 0,0 l/m 0 min 0 min 0 W/m 12,9 km/h (3 Bft) 100,00 %
09.07.2023 00:40 25,0 C 23,9 C 20,6 C 67 % 1017,8 hPa 0,0 l/m 0 min 0 min 0 W/m 6,4 km/h (2 Bft) 100,00 %
09.07.2023 00:42 24,9 C 23,9 C 20,6 C 67 % 1017,7 hPa 0,0 l/m 0 min 0 min 0 W/m 6,4 km/h (2 Bft) 100,00 %
09.07.2023 00:44 24,9 C 23,9 C 20,6 C 67 % 1017,8 hPa 0,0 l/m 0 min 0 min 0 W/m 6,4 km/h (2 Bft) 100,00 %
09.07.2023 00:46 24,9 C 23,9 C 20,6 C 67 % 1017,8 hPa 0,0 l/m 0 min 0 min 0 W/m 6,4 km/h (2 Bft) 100,00 %
09.07.2023 00:48 24,9 C 23,9 C 20,6 C 67 % 1017,8 hPa 0,0 l/m 0 min 0 min 0 W/m 12,9 km/h (3 Bft) 100,00 %
09.07.2023 00:50 24,8 C 23,3 C 20,6 C 67 % 1017,8 hPa 0,0 l/m 0 min 0 min 0 W/m 12,9 km/h (3 Bft) 100,00 %
09.07.2023 00:52 24,8 C 23,3 C 20,6 C 67 % 1017,8 hPa 0,0 l/m 0 min 0 min 0 W/m 6,4 km/h (2 Bft) 97,87 %
09.07.2023 00:54 24,7 C 23,3 C 20,6 C 68 % 1017,8 hPa 0,0 l/m 0 min 0 min 0 W/m 12,9 km/h (3 Bft) 100,00 %
09.07.2023 00:56 24,7 C 23,3 C 20,6 C 68 % 1017,8 hPa 0,0 l/m 0 min 0 min 0 W/m 6,4 km/h (2 Bft) 100,00 %
09.07.2023 00:58 24,7 C 23,3 C 20,6 C 68 % 1017,8 hPa 0,0 l/m 0 min 0 min 0 W/m 6,4 km/h (2 Bft) 100,00 %
09.07.2023 01:00 24,7 C 23,3 C 20,6 C 68 % 1017,8 hPa 0,0 l/m 0 min 0 min 0 W/m 6,4 km/h (2 Bft) 100,00 %
09.07.2023 01:02 24,6 C 23,3 C 20,0 C 68 % 1017,9 hPa 0,0 l/m 0 min 0 min 0 W/m 6,4 km/h (2 Bft) 97,87 %
09.07.2023 01:04 24,6 C 23,3 C 20,0 C 68 % 1017,9 hPa 0,0 l/m 0 min 0 min 0 W/m 6,4 km/h (2 Bft) 100,00 %
09.07.2023 01:06 24,6 C 23,3 C 20,0 C 69 % 1017,9 hPa 0,0 l/m 0 min 0 min 0 W/m 3,2 km/h (1 Bft) 100,00 %
09.07.2023 01:08 24,6 C 23,3 C 20,0 C 69 % 1017,9 hPa 0,0 l/m 0 min 0 min 0 W/m 3,2 km/h (1 Bft) 100,00 %
09.07.2023 01:10 24,6 C 23,3 C 20,0 C 69 % 1018,0 hPa 0,0 l/m 0 min 0 min 0 W/m 6,4 km/h (2 Bft) 100,00 %
09.07.2023 01:12 24,5 C 23,3 C 20,0 C 69 % 1018,0 hPa 0,0 l/m 0 min 0 min 0 W/m 6,4 km/h (2 Bft) 100,00 %
09.07.2023 01:14 24,5 C 23,3 C 20,0 C 69 % 1018,0 hPa 0,0 l/m 0 min 0 min 0 W/m 6,4 km/h (2 Bft) 100,00 %
09.07.2023 01:16 24,4 C 23,3 C 20,0 C 69 % 1017,9 hPa 0,0 l/m 0 min 0 min 0 W/m 3,2 km/h (1 Bft) 100,00 %
09.07.2023 01:18 24,4 C 23,3 C 20,0 C 69 % 1017,9 hPa 0,0 l/m 0 min 0 min 0 W/m 6,4 km/h (2 Bft) 97,87 %
09.07.2023 01:20 24,4 C 23,3 C 20,0 C 69 % 1017,9 hPa 0,0 l/m 0 min 0 min 0 W/m 12,9 km/h (3 Bft) 97,87 %
09.07.2023 01:22 24,4 C 23,3 C 20,0 C 69 % 1017,9 hPa 0,0 l/m 0 min 0 min 0 W/m 6,4 km/h (2 Bft) 97,87 %
09.07.2023 01:24 24,3 C 23,3 C 20,0 C 69 % 1018,0 hPa 0,0 l/m 0 min 0 min 0 W/m 6,4 km/h (2 Bft) 97,83 %
09.07.2023 01:26 24,3 C 22,8 C 20,0 C 69 % 1018,0 hPa 0,0 l/m 0 min 0 min 0 W/m 6,4 km/h (2 Bft) 95,74 %
09.07.2023 01:28 24,3 C 22,8 C 20,0 C 70 % 1017,9 hPa 0,0 l/m 0 min 0 min 0 W/m 3,2 km/h (1 Bft) 95,74 %
09.07.2023 01:30 24,3 C 22,8 C 20,0 C 70 % 1018,0 hPa 0,0 l/m 0 min 0 min 0 W/m 6,4 km/h (2 Bft) 97,87 %
09.07.2023 01:32 24,2 C 22,8 C 20,0 C 70 % 1018,0 hPa 0,0 l/m 0 min 0 min 0 W/m 3,2 km/h (1 Bft) 95,74 %
09.07.2023 01:34 24,2 C 22,8 C 20,0 C 70 % 1018,0 hPa 0,0 l/m 0 min 0 min 0 W/m 6,4 km/h (2 Bft) 95,74 %
09.07.2023 01:36 24,2 C 22,8 C 19,4 C 70 % 1018,0 hPa 0,0 l/m 0 min 0 min 0 W/m 6,4 km/h (2 Bft) 91,30 %
09.07.2023 01:38 24,2 C 22,8 C 19,4 C 70 % 1017,9 hPa 0,0 l/m 0 min 0 min 0 W/m 3,2 km/h (1 Bft) 91,49 %
09.07.2023 01:40 24,1 C 22,8 C 19,4 C 70 % 1017,9 hPa 0,0 l/m 0 min 0 min 0 W/m 6,4 km/h (2 Bft) 95,74 %
09.07.2023 01:42 24,1 C 22,8 C 19,4 C 71 % 1017,9 hPa 0,0 l/m 0 min 0 min 0 W/m 3,2 km/h (1 Bft) 95,74 %
09.07.2023 01:44 24,1 C 22,8 C 19,4 C 71 % 1018,0 hPa 0,0 l/m 0 min 0 min 0 W/m 6,4 km/h (2 Bft) 97,87 %
09.07.2023 01:46 24,0 C 22,8 C 19,4 C 71 % 1017,9 hPa 0,0 l/m 0 min 0 min 0 W/m 6,4 km/h (2 Bft) 93,62 %
09.07.2023 01:48 24,0 C 22,8 C 19,4 C 71 % 1017,9 hPa 0,0 l/m 0 min 0 min 0 W/m 3,2 km/h (1 Bft) 95,74 %
09.07.2023 01:50 23,9 C 22,8 C 19,4 C 71 % 1017,9 hPa 0,0 l/m 0 min 0 min 0 W/m 3,2 km/h (1 Bft) 94,44 %
09.07.2023 01:52 23,9 C 22,8 C 19,4 C 71 % 1017,9 hPa 0,0 l/m 0 min 0 min 0 W/m 3,2 km/h (1 Bft) 91,49 %
09.07.2023 01:54 23,8 C 22,8 C 19,4 C 71 % 1018,0 hPa 0,0 l/m 0 min 0 min 0 W/m 3,2 km/h (1 Bft) 95,74 %
09.07.2023 01:56 23,8 C 22,8 C 19,4 C 72 % 1017,9 hPa 0,0 l/m 0 min 0 min 0 W/m 3,2 km/h (1 Bft) 93,62 %
09.07.2023 01:58 23,8 C 22,8 C 19,4 C 72 % 1017,9 hPa 0,0 l/m 0 min 0 min 0 W/m 3,2 km/h (1 Bft) 95,74 %
09.07.2023 02:00 23,8 C 22,8 C 19,4 C 72 % 1017,9 hPa 0,0 l/m 0 min 0 min 0 W/m 0,0 km/h (0 Bft) 93,48 %
09.07.2023 02:02 23,8 C 22,8 C 19,4 C 72 % 1017,9 hPa 0,0 l/m 0 min 0 min 0 W/m 0,0 km/h (0 Bft) 93,62 %
09.07.2023 02:04 23,7 C 22,8 C 19,4 C 72 % 1017,9 hPa 0,0 l/m 0 min 0 min 0 W/m 0,0 km/h (0 Bft) 100,00 %
09.07.2023 02:06 23,7 C 22,8 C 19,4 C 72 % 1017,9 hPa 0,0 l/m 0 min 0 min 0 W/m 0,0 km/h (0 Bft) 97,92 %
09.07.2023 02:08 23,7 C 22,8 C 19,4 C 72 % 1017,9 hPa 0,0 l/m 0 min 0 min 0 W/m 3,2 km/h (1 Bft) 100,00 %
09.07.2023 02:10 23,7 C 22,8 C 19,4 C 72 % 1017,9 hPa 0,0 l/m 0 min 0 min 0 W/m 0,0 km/h (0 Bft) 100,00 %
09.07.2023 02:12 23,7 C 22,8 C 19,4 C 72 % 1017,9 hPa 0,0 l/m 0 min 0 min 0 W/m 0,0 km/h (0 Bft) 97,87 %
09.07.2023 02:14 23,6 C 22,8 C 19,4 C 72 % 1017,9 hPa 0,0 l/m 0 min 0 min 0 W/m 6,4 km/h (2 Bft) 97,83 %
09.07.2023 02:16 23,6 C 22,2 C 19,4 C 72 % 1017,9 hPa 0,0 l/m 0 min 0 min 0 W/m 3,2 km/h (1 Bft) 97,87 %
09.07.2023 02:18 23,6 C 22,2 C 19,4 C 72 % 1017,9 hPa 0,0 l/m 0 min 0 min 0 W/m 3,2 km/h (1 Bft) 97,56 %
09.07.2023 02:20 23,6 C 22,2 C 19,4 C 73 % 1017,9 hPa 0,0 l/m 0 min 0 min 0 W/m 3,2 km/h (1 Bft) 98,00 %
09.07.2023 02:22 23,6 C 22,2 C 19,4 C 72 % 1017,9 hPa 0,0 l/m 0 min 0 min 0 W/m 3,2 km/h (1 Bft) 97,87 %
09.07.2023 02:24 23,5 C 22,2 C 19,4 C 72 % 1017,9 hPa 0,0 l/m 0 min 0 min 0 W/m 3,2 km/h (1 Bft) 97,87 %
09.07.2023 02:26 23,5 C 22,2 C 18,9 C 73 % 1017,9 hPa 0,0 l/m 0 min 0 min 0 W/m 3,2 km/h (1 Bft) 95,65 %
09.07.2023 02:28 23,5 C 22,2 C 18,9 C 73 % 1017,9 hPa 0,0 l/m 0 min 0 min 0 W/m 3,2 km/h (1 Bft) 97,87 %
09.07.2023 02:30 23,4 C 22,2 C 18,9 C 73 % 1017,9 hPa 0,0 l/m 0 min 0 min 0 W/m 6,4 km/h (2 Bft) 97,87 %
09.07.2023 02:32 23,4 C 22,2 C 18,9 C 73 % 1017,9 hPa 0,0 l/m 0 min 0 min 0 W/m 3,2 km/h (1 Bft) 97,87 %
09.07.2023 02:34 23,4 C 22,2 C 18,9 C 73 % 1017,9 hPa 0,0 l/m 0 min 0 min 0 W/m 3,2 km/h (1 Bft) 97,87 %
09.07.2023 02:36 23,4 C 22,2 C 18,9 C 73 % 1017,9 hPa 0,0 l/m 0 min 0 min 0 W/m 3,2 km/h (1 Bft) 95,74 %
09.07.2023 02:38 23,4 C 22,2 C 18,9 C 73 % 1017,9 hPa 0,0 l/m 0 min 0 min 0 W/m 3,2 km/h (1 Bft) 97,87 %
09.07.2023 02:40 23,4 C 22,2 C 18,9 C 73 % 1017,9 hPa 0,0 l/m 0 min 0 min 0 W/m 6,4 km/h (2 Bft) 97,83 %
09.07.2023 02:42 23,3 C 22,2 C 18,9 C 73 % 1017,9 hPa 0,0 l/m 0 min 0 min 0 W/m 3,2 km/h (1 Bft) 95,74 %
09.07.2023 02:44 23,3 C 22,2 C 18,9 C 73 % 1017,9 hPa 0,0 l/m 0 min 0 min 0 W/m 3,2 km/h (1 Bft) 95,74 %
09.07.2023 02:46 23,3 C 22,2 C 18,9 C 73 % 1017,9 hPa 0,0 l/m 0 min 0 min 0 W/m 6,4 km/h (2 Bft) 100,00 %
09.07.2023 02:48 23,3 C 22,2 C 18,9 C 73 % 1017,9 hPa 0,0 l/m 0 min 0 min 0 W/m 3,2 km/h (1 Bft) 96,61 %
09.07.2023 02:50 23,3 C 22,2 C 18,9 C 73 % 1017,9 hPa 0,0 l/m 0 min 0 min 0 W/m 6,4 km/h (2 Bft) 97,87 %
09.07.2023 02:52 23,2 C 22,2 C 18,9 C 73 % 1017,8 hPa 0,0 l/m 0 min 0 min 0 W/m 3,2 km/h (1 Bft) 97,83 %
09.07.2023 02:54 23,2 C 22,2 C 18,9 C 73 % 1017,8 hPa 0,0 l/m 0 min 0 min 0 W/m 3,2 km/h (1 Bft) 97,87 %
09.07.2023 02:56 23,2 C 22,2 C 18,9 C 73 % 1017,9 hPa 0,0 l/m 0 min 0 min 0 W/m 3,2 km/h (1 Bft) 97,87 %
09.07.2023 02:58 23,2 C 22,2 C 18,9 C 73 % 1017,8 hPa 0,0 l/m 0 min 0 min 0 W/m 3,2 km/h (1 Bft) 97,87 %
09.07.2023 03:00 23,2 C 22,2 C 18,9 C 73 % 1017,8 hPa 0,0 l/m 0 min 0 min 0 W/m 3,2 km/h (1 Bft) 97,87 %
09.07.2023 03:02 23,2 C 22,2 C 18,9 C 73 % 1017,8 hPa 0,0 l/m 0 min 0 min 0 W/m 3,2 km/h (1 Bft) 97,87 %
09.07.2023 03:04 23,1 C 21,7 C 18,9 C 73 % 1017,9 hPa 0,0 l/m 0 min 0 min 0 W/m 0,0 km/h (0 Bft) 97,56 %
09.07.2023 03:06 23,1 C 21,7 C 18,3 C 74 % 1017,9 hPa 0,0 l/m 0 min 0 min 0 W/m 3,2 km/h (1 Bft) 97,73 %
09.07.2023 03:08 23,1 C 21,7 C 18,3 C 74 % 1017,9 hPa 0,0 l/m 0 min 0 min 0 W/m 0,0 km/h (0 Bft) 100,00 %
09.07.2023 03:10 23,1 C 21,7 C 18,3 C 74 % 1017,9 hPa 0,0 l/m 0 min 0 min 0 W/m 3,2 km/h (1 Bft) 100,00 %
09.07.2023 03:12 23,1 C 21,7 C 18,3 C 74 % 1017,9 hPa 0,0 l/m 0 min 0 min 0 W/m 3,2 km/h (1 Bft) 100,00 %
09.07.2023 03:14 23,1 C 21,7 C 18,3 C 74 % 1017,9 hPa 0,0 l/m 0 min 0 min 0 W/m 0,0 km/h (0 Bft) 97,87 %
09.07.2023 03:16 23,0 C 21,7 C 18,3 C 74 % 1017,8 hPa 0,0 l/m 0 min 0 min 0 W/m 0,0 km/h (0 Bft) 100,00 %
09.07.2023 03:18 23,0 C 21,7 C 18,3 C 74 % 1017,9 hPa 0,0 l/m 0 min 0 min 0 W/m 3,2 km/h (1 Bft) 97,87 %
09.07.2023 03:20 23,0 C 21,7 C 18,3 C 74 % 1017,9 hPa 0,0 l/m 0 min 0 min 0 W/m 3,2 km/h (1 Bft) 100,00 %
09.07.2023 03:22 22,9 C 21,7 C 18,3 C 74 % 1017,9 hPa 0,0 l/m 0 min 0 min 0 W/m 3,2 km/h (1 Bft) 97,83 %
09.07.2023 03:24 22,9 C 21,7 C 18,3 C 74 % 1017,9 hPa 0,0 l/m 0 min 0 min 0 W/m 3,2 km/h (1 Bft) 97,92 %
09.07.2023 03:26 22,9 C 21,7 C 18,3 C 74 % 1017,9 hPa 0,0 l/m 0 min 0 min 0 W/m 3,2 km/h (1 Bft) 97,87 %
09.07.2023 03:28 22,9 C 21,7 C 18,3 C 74 % 1017,9 hPa 0,0 l/m 0 min 0 min 0 W/m 3,2 km/h (1 Bft) 97,92 %
09.07.2023 03:30 22,8 C 21,7 C 18,3 C 74 % 1017,9 hPa 0,0 l/m 0 min 0 min 0 W/m 3,2 km/h (1 Bft) 97,92 %
09.07.2023 03:32 22,8 C 21,7 C 18,3 C 74 % 1017,9 hPa 0,0 l/m 0 min 0 min 0 W/m 6,4 km/h (2 Bft) 97,87 %
09.07.2023 03:34 22,8 C 21,7 C 18,3 C 74 % 1017,9 hPa 0,0 l/m 0 min 0 min 0 W/m 3,2 km/h (1 Bft) 97,87 %
09.07.2023 03:36 22,8 C 21,7 C 18,3 C 75 % 1018,0 hPa 0,0 l/m 0 min 0 min 0 W/m 3,2 km/h (1 Bft) 97,87 %
09.07.2023 03:38 22,7 C 21,7 C 18,3 C 75 % 1018,0 hPa 0,0 l/m 0 min 0 min 0 W/m 6,4 km/h (2 Bft) 97,87 %
09.07.2023 03:40 22,7 C 21,7 C 18,3 C 75 % 1018,0 hPa 0,0 l/m 0 min 0 min 0 W/m 6,4 km/h (2 Bft) 97,87 %
09.07.2023 03:42 22,7 C 21,1 C 18,3 C 75 % 1017,9 hPa 0,0 l/m 0 min 0 min 0 W/m 3,2 km/h (1 Bft) 97,87 %
09.07.2023 03:44 22,7 C 21,7 C 18,3 C 75 % 1018,0 hPa 0,0 l/m 0 min 0 min 0 W/m 3,2 km/h (1 Bft) 97,87 %
09.07.2023 03:46 22,7 C 21,7 C 18,3 C 75 % 1018,0 hPa 0,0 l/m 0 min 0 min 0 W/m 0,0 km/h (0 Bft) 97,83 %
09.07.2023 03:48 22,6 C 21,7 C 18,3 C 75 % 1017,9 hPa 0,0 l/m 0 min 0 min 0 W/m 3,2 km/h (1 Bft) 95,74 %
09.07.2023 03:50 22,6 C 21,7 C 18,3 C 75 % 1017,9 hPa 0,0 l/m 0 min 0 min 0 W/m 0,0 km/h (0 Bft) 95,74 %
09.07.2023 03:52 22,6 C 21,7 C 18,3 C 75 % 1017,9 hPa 0,0 l/m 0 min 0 min 0 W/m 0,0 km/h (0 Bft) 97,14 %
09.07.2023 03:54 22,6 C 21,7 C 18,3 C 75 % 1017,9 hPa 0,0 l/m 0 min 0 min 0 W/m 3,2 km/h (1 Bft) 98,33 %
09.07.2023 03:56 22,6 C 21,7 C 18,3 C 75 % 1017,9 hPa 0,0 l/m 0 min 0 min 0 W/m 3,2 km/h (1 Bft) 97,87 %
09.07.2023 03:58 22,6 C 21,1 C 18,3 C 75 % 1017,9 hPa 0,0 l/m 0 min 0 min 0 W/m 3,2 km/h (1 Bft) 100,00 %
09.07.2023 04:00 22,6 C 21,1 C 18,3 C 75 % 1017,9 hPa 0,0 l/m 0 min 0 min 0 W/m 3,2 km/h (1 Bft) 97,14 %
09.07.2023 04:02 22,6 C 21,1 C 18,3 C 75 % 1017,9 hPa 0,0 l/m 0 min 0 min 0 W/m 3,2 km/h (1 Bft) 94,12 %
09.07.2023 04:04 22,6 C 21,1 C 18,3 C 75 % 1017,9 hPa 0,0 l/m 0 min 0 min 0 W/m 3,2 km/h (1 Bft) 100,00 %
09.07.2023 04:06 22,5 C 21,1 C 18,3 C 75 % 1017,9 hPa 0,0 l/m 0 min 0 min 0 W/m 3,2 km/h (1 Bft) 96,61 %
09.07.2023 04:08 22,5 C 21,1 C 18,3 C 75 % 1017,9 hPa 0,0 l/m 0 min 0 min 0 W/m 3,2 km/h (1 Bft) 97,14 %
09.07.2023 04:10 22,4 C 21,1 C 18,3 C 75 % 1017,9 hPa 0,0 l/m 0 min 0 min 0 W/m 0,0 km/h (0 Bft) 96,00 %
09.07.2023 04:12 22,4 C 21,1 C 18,3 C 76 % 1017,9 hPa 0,0 l/m 0 min 0 min 0 W/m 3,2 km/h (1 Bft) 93,62 %
09.07.2023 04:14 22,4 C 21,1 C 18,3 C 76 % 1017,9 hPa 0,0 l/m 0 min 0 min 0 W/m 3,2 km/h (1 Bft) 97,83 %
09.07.2023 04:16 22,4 C 21,1 C 18,3 C 76 % 1017,9 hPa 0,0 l/m 0 min 0 min 0 W/m 3,2 km/h (1 Bft) 96,30 %
09.07.2023 04:18 22,4 C 21,1 C 18,3 C 76 % 1017,9 hPa 0,0 l/m 0 min 0 min 0 W/m 0,0 km/h (0 Bft) 97,87 %
09.07.2023 04:20 22,4 C 21,1 C 18,3 C 76 % 1017,9 hPa 0,0 l/m 0 min 0 min 0 W/m 6,4 km/h (2 Bft) 95,74 %
09.07.2023 04:22 22,3 C 21,1 C 17,8 C 76 % 1017,9 hPa 0,0 l/m 0 min 0 min 0 W/m 3,2 km/h (1 Bft) 97,87 %
09.07.2023 04:24 22,3 C 21,1 C 17,8 C 76 % 1017,9 hPa 0,0 l/m 0 min 0 min 0 W/m 3,2 km/h (1 Bft) 97,37 %
09.07.2023 04:26 22,3 C 21,1 C 17,8 C 76 % 1017,9 hPa 0,0 l/m 0 min 0 min 0 W/m 0,0 km/h (0 Bft) 95,74 %
09.07.2023 04:28 22,3 C 21,1 C 17,8 C 76 % 1017,9 hPa 0,0 l/m 0 min 0 min 0 W/m 6,4 km/h (2 Bft) 95,65 %
09.07.2023 04:30 22,3 C 21,1 C 17,8 C 76 % 1017,9 hPa 0,0 l/m 0 min 0 min 0 W/m 3,2 km/h (1 Bft) 97,87 %
09.07.2023 04:32 22,3 C 21,1 C 17,8 C 76 % 1017,9 hPa 0,0 l/m 0 min 0 min 0 W/m 3,2 km/h (1 Bft) 95,74 %
09.07.2023 04:34 22,2 C 21,1 C 17,8 C 76 % 1017,9 hPa 0,0 l/m 0 min 0 min 0 W/m 3,2 km/h (1 Bft) 97,87 %
09.07.2023 04:36 22,2 C 21,1 C 17,8 C 76 % 1017,9 hPa 0,0 l/m 0 min 0 min 0 W/m 3,2 km/h (1 Bft) 97,87 %
09.07.2023 04:38 22,2 C 21,1 C 17,8 C 76 % 1018,0 hPa 0,0 l/m 0 min 0 min 0 W/m 6,4 km/h (2 Bft) 97,87 %
09.07.2023 04:40 22,2 C 20,6 C 17,8 C 77 % 1018,0 hPa 0,0 l/m 0 min 0 min 0 W/m 3,2 km/h (1 Bft) 93,62 %
09.07.2023 04:42 22,1 C 20,6 C 17,8 C 77 % 1017,9 hPa 0,0 l/m 0 min 0 min 0 W/m 3,2 km/h (1 Bft) 97,83 %
09.07.2023 04:44 22,1 C 20,6 C 17,8 C 77 % 1018,0 hPa 0,0 l/m 0 min 0 min 0 W/m 3,2 km/h (1 Bft) 97,87 %
09.07.2023 04:46 22,1 C 20,6 C 17,8 C 77 % 1018,0 hPa 0,0 l/m 0 min 0 min 0 W/m 3,2 km/h (1 Bft) 97,87 %
09.07.2023 04:48 22,1 C 20,6 C 17,8 C 77 % 1018,0 hPa 0,0 l/m 0 min 0 min 0 W/m 3,2 km/h (1 Bft) 95,74 %
09.07.2023 04:50 22,0 C 20,6 C 17,8 C 77 % 1018,0 hPa 0,0 l/m 0 min 0 min 0 W/m 3,2 km/h (1 Bft) 100,00 %
09.07.2023 04:52 22,0 C 20,6 C 17,8 C 77 % 1018,0 hPa 0,0 l/m 0 min 0 min 0 W/m 3,2 km/h (1 Bft) 95,74 %
09.07.2023 04:54 21,9 C 20,6 C 17,8 C 77 % 1018,0 hPa 0,0 l/m 0 min 0 min 0 W/m 3,2 km/h (1 Bft) 95,74 %
09.07.2023 04:56 21,9 C 20,6 C 17,8 C 78 % 1018,1 hPa 0,0 l/m 0 min 0 min 0 W/m 6,4 km/h (2 Bft) 100,00 %
09.07.2023 04:58 21,9 C 20,6 C 17,8 C 78 % 1018,0 hPa 0,0 l/m 0 min 0 min 0 W/m 3,2 km/h (1 Bft) 100,00 %
09.07.2023 05:00 21,9 C 20,6 C 17,8 C 78 % 1018,0 hPa 0,0 l/m 0 min 0 min 0 W/m 0,0 km/h (0 Bft) 97,87 %
09.07.2023 05:02 21,8 C 20,6 C 17,8 C 78 % 1018,0 hPa 0,0 l/m 0 min 0 min 0 W/m 3,2 km/h (1 Bft) 95,74 %
09.07.2023 05:04 21,8 C 20,6 C 17,8 C 78 % 1018,0 hPa 0,0 l/m 0 min 0 min 0 W/m 3,2 km/h (1 Bft) 97,87 %
09.07.2023 05:06 21,8 C 20,6 C 17,8 C 78 % 1018,0 hPa 0,0 l/m 0 min 0 min 0 W/m 3,2 km/h (1 Bft) 100,00 %
09.07.2023 05:08 21,8 C 20,6 C 17,8 C 78 % 1018,1 hPa 0,0 l/m 0 min 0 min 0 W/m 3,2 km/h (1 Bft) 97,14 %
09.07.2023 05:10 21,8 C 20,6 C 17,8 C 78 % 1018,1 hPa 0,0 l/m 0 min 0 min 0 W/m 3,2 km/h (1 Bft) 97,87 %
09.07.2023 05:12 21,8 C 20,6 C 17,8 C 78 % 1018,1 hPa 0,0 l/m 0 min 0 min 0 W/m 0,0 km/h (0 Bft) 97,87 %
09.07.2023 05:14 21,7 C 20,6 C 17,2 C 78 % 1018,1 hPa 0,0 l/m 0 min 0 min 0 W/m 3,2 km/h (1 Bft) 95,74 %
09.07.2023 05:16 21,7 C 20,6 C 17,2 C 78 % 1018,1 hPa 0,0 l/m 0 min 0 min 0 W/m 3,2 km/h (1 Bft) 95,74 %
09.07.2023 05:18 21,7 C 20,6 C 17,2 C 78 % 1018,2 hPa 0,0 l/m 0 min 0 min 0 W/m 3,2 km/h (1 Bft) 95,74 %
09.07.2023 05:20 21,7 C 20,6 C 17,2 C 79 % 1018,2 hPa 0,0 l/m 0 min 0 min 0 W/m 0,0 km/h (0 Bft) 95,74 %
09.07.2023 05:22 21,7 C 20,6 C 17,2 C 79 % 1018,2 hPa 0,0 l/m 0 min 0 min 0 W/m 0,0 km/h (0 Bft) 95,65 %
09.07.2023 05:24 21,7 C 20,6 C 17,2 C 79 % 1018,2 hPa 0,0 l/m 0 min 0 min 0 W/m 3,2 km/h (1 Bft) 95,74 %
09.07.2023 05:26 21,6 C 20,6 C 17,2 C 79 % 1018,2 hPa 0,0 l/m 0 min 0 min 0 W/m 3,2 km/h (1 Bft) 95,74 %
09.07.2023 05:28 21,6 C 20,6 C 17,2 C 79 % 1018,2 hPa 0,0 l/m 0 min 0 min 0 W/m 3,2 km/h (1 Bft) 95,74 %
09.07.2023 05:30 21,6 C 20,6 C 17,2 C 79 % 1018,2 hPa 0,0 l/m 0 min 0 min 0 W/m 0,0 km/h (0 Bft) 95,74 %
09.07.2023 05:32 21,6 C 20,6 C 17,2 C 79 % 1018,2 hPa 0,0 l/m 0 min 0 min 0 W/m 0,0 km/h (0 Bft) 89,36 %
09.07.2023 05:34 21,6 C 20,0 C 17,2 C 80 % 1018,3 hPa 0,0 l/m 0 min 0 min 0 W/m 3,2 km/h (1 Bft) 93,62 %
09.07.2023 05:36 21,6 C 20,0 C 17,2 C 80 % 1018,3 hPa 0,0 l/m 0 min 0 min 1 W/m 0,0 km/h (0 Bft) 95,65 %
09.07.2023 05:38 21,5 C 20,0 C 17,2 C 80 % 1018,3 hPa 0,0 l/m 0 min 0 min 5 W/m 0,0 km/h (0 Bft) 95,74 %
09.07.2023 05:40 21,5 C 20,0 C 16,7 C 80 % 1018,3 hPa 0,0 l/m 0 min 0 min 5 W/m 3,2 km/h (1 Bft) 93,62 %
09.07.2023 05:42 21,4 C 20,0 C 16,7 C 80 % 1018,3 hPa 0,0 l/m 0 min 0 min 6 W/m 0,0 km/h (0 Bft) 95,74 %
09.07.2023 05:44 21,4 C 20,0 C 16,7 C 80 % 1018,3 hPa 0,0 l/m 0 min 0 min 7 W/m 0,0 km/h (0 Bft) 95,74 %
09.07.2023 05:46 21,4 C 20,0 C 16,7 C 80 % 1018,3 hPa 0,0 l/m 0 min 0 min 9 W/m 0,0 km/h (0 Bft) 93,75 %
09.07.2023 05:48 21,3 C 20,0 C 16,7 C 81 % 1018,3 hPa 0,0 l/m 0 min 0 min 9 W/m 3,2 km/h (1 Bft) 95,65 %
09.07.2023 05:50 21,3 C 20,0 C 16,7 C 81 % 1018,3 hPa 0,0 l/m 0 min 0 min 11 W/m 3,2 km/h (1 Bft) 97,87 %
09.07.2023 05:52 21,3 C 20,0 C 16,7 C 81 % 1018,3 hPa 0,0 l/m 0 min 0 min 11 W/m 3,2 km/h (1 Bft) 97,87 %
09.07.2023 05:54 21,2 C 20,0 C 17,2 C 81 % 1018,3 hPa 0,0 l/m 0 min 0 min 12 W/m 3,2 km/h (1 Bft) 100,00 %
09.07.2023 05:56 21,2 C 20,0 C 17,2 C 81 % 1018,4 hPa 0,0 l/m 0 min 0 min 13 W/m 3,2 km/h (1 Bft) 100,00 %
09.07.2023 05:58 21,2 C 20,0 C 17,2 C 81 % 1018,4 hPa 0,0 l/m 0 min 0 min 14 W/m 3,2 km/h (1 Bft) 100,00 %
09.07.2023 06:00 21,2 C 20,0 C 17,2 C 81 % 1018,4 hPa 0,0 l/m 0 min 0 min 15 W/m 3,2 km/h (1 Bft) 100,00 %
09.07.2023 06:02 21,2 C 20,0 C 17,2 C 81 % 1018,4 hPa 0,0 l/m 0 min 0 min 16 W/m 6,4 km/h (2 Bft) 100,00 %
09.07.2023 06:04 21,1 C 20,0 C 17,2 C 81 % 1018,4 hPa 0,0 l/m 0 min 0 min 18 W/m 3,2 km/h (1 Bft) 100,00 %
09.07.2023 06:08 21,1 C 20,0 C 17,2 C 81 % 1018,4 hPa 0,0 l/m 0 min 0 min 19 W/m 3,2 km/h (1 Bft) 100,00 %
09.07.2023 06:10 21,1 C 20,0 C 17,2 C 81 % 1018,3 hPa 0,0 l/m 0 min 0 min 20 W/m 3,2 km/h (1 Bft) 100,00 %
09.07.2023 06:12 21,1 C 20,0 C 17,2 C 81 % 1018,4 hPa 0,0 l/m 0 min 0 min 21 W/m 3,2 km/h (1 Bft) 100,00 %
09.07.2023 06:16 21,1 C 20,6 C 17,2 C 82 % 1018,4 hPa 0,0 l/m 0 min 0 min 22 W/m 3,2 km/h (1 Bft) 100,00 %
09.07.2023 06:18 21,1 C 20,6 C 17,2 C 81 % 1018,4 hPa 0,0 l/m 0 min 0 min 23 W/m 3,2 km/h (1 Bft) 100,00 %
09.07.2023 06:20 21,1 C 20,6 C 17,2 C 81 % 1018,4 hPa 0,0 l/m 0 min 0 min 25 W/m 3,2 km/h (1 Bft) 100,00 %
09.07.2023 06:22 21,1 C 20,6 C 17,2 C 82 % 1018,4 hPa 0,0 l/m 0 min 0 min 25 W/m 0,0 km/h (0 Bft) 97,87 %
09.07.2023 06:24 21,1 C 20,6 C 17,2 C 82 % 1018,4 hPa 0,0 l/m 0 min 0 min 26 W/m 3,2 km/h (1 Bft) 100,00 %
09.07.2023 06:26 21,1 C 20,6 C 17,2 C 82 % 1018,4 hPa 0,0 l/m 0 min 0 min 26 W/m 3,2 km/h (1 Bft) 100,00 %
09.07.2023 06:28 21,1 C 20,6 C 17,2 C 82 % 1018,4 hPa 0,0 l/m 0 min 0 min 28 W/m 3,2 km/h (1 Bft) 100,00 %
09.07.2023 06:30 21,1 C 20,6 C 17,2 C 82 % 1018,4 hPa 0,0 l/m 0 min 0 min 28 W/m 3,2 km/h (1 Bft) 100,00 %
09.07.2023 06:32 21,1 C 20,6 C 17,2 C 82 % 1018,4 hPa 0,0 l/m 0 min 0 min 30 W/m 3,2 km/h (1 Bft) 100,00 %
09.07.2023 06:34 21,1 C 20,6 C 17,2 C 82 % 1018,4 hPa 0,0 l/m 0 min 0 min 31 W/m 3,2 km/h (1 Bft) 97,87 %
09.07.2023 06:36 21,1 C 20,6 C 17,2 C 82 % 1018,4 hPa 0,0 l/m 0 min 0 min 32 W/m 3,2 km/h (1 Bft) 97,87 %
09.07.2023 06:38 21,1 C 20,6 C 17,2 C 82 % 1018,4 hPa 0,0 l/m 0 min 0 min 33 W/m 3,2 km/h (1 Bft) 100,00 %
09.07.2023 06:40 21,2 C 20,6 C 17,2 C 82 % 1018,4 hPa 0,0 l/m 0 min 0 min 34 W/m 3,2 km/h (1 Bft) 100,00 %
09.07.2023 06:42 21,2 C 20,6 C 17,2 C 82 % 1018,4 hPa 0,0 l/m 0 min 0 min 35 W/m 3,2 km/h (1 Bft) 100,00 %
09.07.2023 06:44 21,2 C 20,6 C 17,2 C 82 % 1018,4 hPa 0,0 l/m 0 min 0 min 37 W/m 3,2 km/h (1 Bft) 100,00 %
09.07.2023 06:46 21,2 C 20,6 C 17,2 C 82 % 1018,3 hPa 0,0 l/m 0 min 0 min 39 W/m 6,4 km/h (2 Bft) 97,87 %
09.07.2023 06:48 21,2 C 20,6 C 17,8 C 82 % 1018,3 hPa 0,0 l/m 0 min 0 min 40 W/m 3,2 km/h (1 Bft) 100,00 %
09.07.2023 06:50 21,2 C 20,6 C 17,8 C 82 % 1018,3 hPa 0,0 l/m 0 min 0 min 41 W/m 6,4 km/h (2 Bft) 100,00 %
09.07.2023 06:52 21,2 C 21,1 C 17,8 C 82 % 1018,3 hPa 0,0 l/m 0 min 0 min 42 W/m 3,2 km/h (1 Bft) 97,87 %
09.07.2023 06:54 21,3 C 21,1 C 17,8 C 82 % 1018,3 hPa 0,0 l/m 0 min 0 min 44 W/m 9,7 km/h (2 Bft) 97,83 %
09.07.2023 06:56 21,3 C 21,1 C 17,8 C 82 % 1018,3 hPa 0,0 l/m 0 min 0 min 46 W/m 9,7 km/h (2 Bft) 95,74 %
09.07.2023 06:58 21,3 C 21,1 C 17,8 C 82 % 1018,3 hPa 0,0 l/m 0 min 0 min 47 W/m 16,1 km/h (3 Bft) 97,87 %
09.07.2023 07:00 21,4 C 21,1 C 17,8 C 82 % 1018,3 hPa 0,0 l/m 0 min 0 min 48 W/m 6,4 km/h (2 Bft) 95,74 %
09.07.2023 07:02 21,4 C 21,1 C 17,8 C 82 % 1018,3 hPa 0,0 l/m 0 min 0 min 49 W/m 12,9 km/h (3 Bft) 97,87 %
09.07.2023 07:04 21,4 C 21,1 C 17,8 C 82 % 1018,3 hPa 0,0 l/m 0 min 0 min 51 W/m 12,9 km/h (3 Bft) 97,87 %
09.07.2023 07:06 21,5 C 21,1 C 17,8 C 82 % 1018,4 hPa 0,0 l/m 0 min 0 min 52 W/m 3,2 km/h (1 Bft) 98,28 %
09.07.2023 07:08 21,5 C 21,1 C 17,8 C 82 % 1018,3 hPa 0,0 l/m 0 min 0 min 53 W/m 3,2 km/h (1 Bft) 97,22 %
09.07.2023 07:10 21,6 C 21,1 C 17,8 C 82 % 1018,3 hPa 0,0 l/m 0 min 0 min 54 W/m 3,2 km/h (1 Bft) 95,65 %
09.07.2023 07:12 21,6 C 21,1 C 18,3 C 82 % 1018,4 hPa 0,0 l/m 0 min 0 min 54 W/m 3,2 km/h (1 Bft) 95,74 %
09.07.2023 07:14 21,7 C 21,7 C 18,3 C 82 % 1018,3 hPa 0,0 l/m 0 min 0 min 55 W/m 6,4 km/h (2 Bft) 91,49 %
09.07.2023 07:16 21,7 C 21,7 C 18,3 C 82 % 1018,3 hPa 0,0 l/m 0 min 0 min 56 W/m 3,2 km/h (1 Bft) 95,74 %
09.07.2023 07:18 21,7 C 21,7 C 18,3 C 82 % 1018,3 hPa 0,0 l/m 0 min 0 min 57 W/m 3,2 km/h (1 Bft) 93,62 %
09.07.2023 07:20 21,8 C 21,7 C 18,3 C 81 % 1018,3 hPa 0,0 l/m 0 min 0 min 58 W/m 3,2 km/h (1 Bft) 95,65 %
09.07.2023 07:22 21,8 C 21,7 C 18,3 C 81 % 1018,3 hPa 0,0 l/m 0 min 0 min 58 W/m 3,2 km/h (1 Bft) 95,74 %
09.07.2023 07:24 21,8 C 21,7 C 18,3 C 81 % 1018,3 hPa 0,0 l/m 0 min 0 min 60 W/m 3,2 km/h (1 Bft) 95,74 %
09.07.2023 07:26 21,9 C 21,7 C 18,3 C 81 % 1018,3 hPa 0,0 l/m 0 min 0 min 61 W/m 3,2 km/h (1 Bft) 95,74 %
09.07.2023 07:28 21,9 C 21,7 C 18,3 C 81 % 1018,3 hPa 0,0 l/m 0 min 0 min 62 W/m 6,4 km/h (2 Bft) 95,74 %
09.07.2023 07:30 21,9 C 21,7 C 18,3 C 81 % 1018,4 hPa 0,0 l/m 0 min 0 min 62 W/m 6,4 km/h (2 Bft) 95,74 %
09.07.2023 07:32 22,0 C 22,2 C 18,3 C 81 % 1018,3 hPa 0,0 l/m 0 min 0 min 63 W/m 9,7 km/h (2 Bft) 93,62 %
09.07.2023 07:34 22,1 C 22,2 C 18,3 C 81 % 1018,3 hPa 0,0 l/m 0 min 0 min 63 W/m 12,9 km/h (3 Bft) 95,65 %
09.07.2023 07:36 22,1 C 22,2 C 18,3 C 80 % 1018,3 hPa 0,0 l/m 0 min 0 min 64 W/m 12,9 km/h (3 Bft) 95,74 %
09.07.2023 07:38 22,2 C 22,2 C 18,3 C 80 % 1018,3 hPa 0,0 l/m 0 min 0 min 65 W/m 6,4 km/h (2 Bft) 95,74 %
09.07.2023 07:40 22,2 C 22,2 C 18,3 C 80 % 1018,4 hPa 0,0 l/m 0 min 0 min 67 W/m 6,4 km/h (2 Bft) 97,87 %
09.07.2023 07:42 22,3 C 22,2 C 18,3 C 80 % 1018,4 hPa 0,0 l/m 0 min 0 min 68 W/m 9,7 km/h (2 Bft) 95,74 %
09.07.2023 07:44 22,3 C 22,2 C 18,9 C 80 % 1018,4 hPa 0,0 l/m 0 min 0 min 69 W/m 9,7 km/h (2 Bft) 98,00 %
09.07.2023 07:46 22,4 C 22,2 C 18,9 C 80 % 1018,4 hPa 0,0 l/m 0 min 0 min 74 W/m 3,2 km/h (1 Bft) 100,00 %
09.07.2023 07:48 22,4 C 22,2 C 18,9 C 79 % 1018,4 hPa 0,0 l/m 0 min 0 min 138 W/m 3,2 km/h (1 Bft) 97,87 %
09.07.2023 07:50 22,5 C 22,8 C 18,9 C 79 % 1018,4 hPa 0,0 l/m 2 min 0 min 186 W/m 3,2 km/h (1 Bft) 100,00 %
09.07.2023 07:52 22,6 C 22,8 C 18,9 C 79 % 1018,4 hPa 0,0 l/m 2 min 0 min 195 W/m 6,4 km/h (2 Bft) 97,87 %
09.07.2023 07:54 22,6 C 22,8 C 18,9 C 79 % 1018,4 hPa 0,0 l/m 2 min 0 min 190 W/m 6,4 km/h (2 Bft) 100,00 %
09.07.2023 07:56 22,7 C 22,8 C 18,9 C 79 % 1018,3 hPa 0,0 l/m 0 min 0 min 104 W/m 6,4 km/h (2 Bft) 97,87 %
09.07.2023 07:58 22,7 C 22,8 C 18,9 C 79 % 1018,3 hPa 0,0 l/m 0 min 0 min 77 W/m 16,1 km/h (3 Bft) 97,87 %
09.07.2023 08:00 22,8 C 22,8 C 18,9 C 78 % 1018,3 hPa 0,0 l/m 0 min 0 min 116 W/m 6,4 km/h (2 Bft) 97,87 %
09.07.2023 08:02 22,9 C 22,8 C 18,9 C 78 % 1018,3 hPa 0,0 l/m 2 min 0 min 209 W/m 12,9 km/h (3 Bft) 97,87 %
09.07.2023 08:04 22,9 C 22,8 C 18,9 C 78 % 1018,3 hPa 0,0 l/m 2 min 0 min 232 W/m 6,4 km/h (2 Bft) 97,92 %
09.07.2023 08:06 23,1 C 23,3 C 18,9 C 78 % 1018,4 hPa 0,0 l/m 2 min 0 min 240 W/m 6,4 km/h (2 Bft) 94,92 %
09.07.2023 08:08 23,1 C 23,9 C 19,4 C 78 % 1018,4 hPa 0,0 l/m 2 min 0 min 244 W/m 6,4 km/h (2 Bft) 97,14 %
09.07.2023 08:10 23,2 C 24,4 C 19,4 C 78 % 1018,4 hPa 0,0 l/m 2 min 0 min 251 W/m 3,2 km/h (1 Bft) 97,87 %
09.07.2023 08:12 23,3 C 25,0 C 19,4 C 77 % 1018,4 hPa 0,0 l/m 2 min 0 min 257 W/m 6,4 km/h (2 Bft) 97,87 %
09.07.2023 08:14 23,4 C 25,0 C 19,4 C 77 % 1018,3 hPa 0,0 l/m 2 min 0 min 249 W/m 6,4 km/h (2 Bft) 97,87 %
09.07.2023 08:16 23,5 C 25,6 C 19,4 C 77 % 1018,4 hPa 0,0 l/m 2 min 0 min 239 W/m 6,4 km/h (2 Bft) 97,83 %
09.07.2023 08:18 23,6 C 25,6 C 19,4 C 76 % 1018,4 hPa 0,0 l/m 2 min 0 min 272 W/m 6,4 km/h (2 Bft) 97,87 %
09.07.2023 08:20 23,7 C 26,1 C 19,4 C 76 % 1018,4 hPa 0,0 l/m 2 min 0 min 279 W/m 12,9 km/h (3 Bft) 95,74 %
09.07.2023 08:22 23,8 C 26,1 C 20,0 C 76 % 1018,4 hPa 0,0 l/m 2 min 0 min 283 W/m 9,7 km/h (2 Bft) 97,87 %
09.07.2023 08:24 23,9 C 26,7 C 20,0 C 76 % 1018,3 hPa 0,0 l/m 2 min 0 min 289 W/m 6,4 km/h (2 Bft) 97,87 %
09.07.2023 08:26 24,1 C 26,7 C 20,0 C 75 % 1018,4 hPa 0,0 l/m 2 min 0 min 295 W/m 6,4 km/h (2 Bft) 96,00 %
09.07.2023 08:28 24,2 C 26,7 C 20,0 C 75 % 1018,4 hPa 0,0 l/m 2 min 0 min 295 W/m 6,4 km/h (2 Bft) 97,87 %
09.07.2023 08:30 24,3 C 26,7 C 20,6 C 75 % 1018,4 hPa 0,0 l/m 2 min 0 min 303 W/m 6,4 km/h (2 Bft) 97,83 %
09.07.2023 08:35 24,6 C 27,8 C 21,1 C 74 % 1018,4 hPa 0,0 l/m 5 min 0 min 313 W/m 6,4 km/h (2 Bft) 100,00 %
09.07.2023 08:40 24,9 C 28,3 C 21,7 C 72 % 1018,5 hPa 0,0 l/m 5 min 0 min 322 W/m 9,7 km/h (2 Bft) 97,87 %
09.07.2023 08:42 25,1 C 28,9 C 22,2 C 72 % 1018,5 hPa 0,0 l/m 2 min 0 min 333 W/m 6,4 km/h (2 Bft) 97,83 %
09.07.2023 08:44 25,2 C 28,9 C 22,2 C 72 % 1018,5 hPa 0,0 l/m 2 min 0 min 338 W/m 6,4 km/h (2 Bft) 97,87 %
09.07.2023 08:46 25,3 C 29,4 C 22,8 C 71 % 1018,5 hPa 0,0 l/m 2 min 0 min 345 W/m 6,4 km/h (2 Bft) 95,74 %
09.07.2023 08:48 25,4 C 29,4 C 22,8 C 71 % 1018,4 hPa 0,0 l/m 2 min 0 min 354 W/m 12,9 km/h (3 Bft) 91,49 %
09.07.2023 08:50 25,6 C 29,4 C 22,8 C 71 % 1018,5 hPa 0,0 l/m 2 min 0 min 364 W/m 6,4 km/h (2 Bft) 97,87 %
09.07.2023 08:52 25,7 C 30,0 C 22,8 C 71 % 1018,5 hPa 0,0 l/m 2 min 0 min 369 W/m 6,4 km/h (2 Bft) 97,87 %
09.07.2023 08:54 25,8 C 30,6 C 23,3 C 71 % 1018,5 hPa 0,0 l/m 2 min 0 min 373 W/m 6,4 km/h (2 Bft) 100,00 %
09.07.2023 08:56 25,9 C 30,0 C 23,3 C 70 % 1018,5 hPa 0,0 l/m 2 min 0 min 379 W/m 6,4 km/h (2 Bft) 95,74 %
09.07.2023 08:58 26,1 C 30,6 C 23,3 C 69 % 1018,5 hPa 0,0 l/m 2 min 0 min 385 W/m 12,9 km/h (3 Bft) 100,00 %
09.07.2023 09:00 26,2 C 30,6 C 23,9 C 69 % 1018,5 hPa 0,0 l/m 2 min 0 min 390 W/m 6,4 km/h (2 Bft) 100,00 %
09.07.2023 09:02 26,3 C 31,1 C 23,9 C 69 % 1018,5 hPa 0,0 l/m 2 min 0 min 396 W/m 6,4 km/h (2 Bft) 100,00 %
09.07.2023 09:04 26,4 C 31,1 C 23,9 C 69 % 1018,5 hPa 0,0 l/m 2 min 0 min 400 W/m 6,4 km/h (2 Bft) 100,00 %
09.07.2023 09:06 26,6 C 31,1 C 23,9 C 68 % 1018,5 hPa 0,0 l/m 2 min 0 min 407 W/m 6,4 km/h (2 Bft) 100,00 %
09.07.2023 09:08 26,6 C 31,1 C 24,4 C 67 % 1018,5 hPa 0,0 l/m 2 min 0 min 410 W/m 6,4 km/h (2 Bft) 100,00 %
09.07.2023 09:10 26,7 C 31,1 C 24,4 C 68 % 1018,5 hPa 0,0 l/m 2 min 0 min 413 W/m 6,4 km/h (2 Bft) 95,74 %
09.07.2023 09:12 26,8 C 31,1 C 24,4 C 67 % 1018,5 hPa 0,0 l/m 2 min 0 min 416 W/m 6,4 km/h (2 Bft) 95,65 %
09.07.2023 09:14 27,0 C 31,7 C 24,4 C 67 % 1018,4 hPa 0,0 l/m 2 min 0 min 420 W/m 6,4 km/h (2 Bft) 97,87 %
09.07.2023 09:16 27,1 C 31,1 C 24,4 C 67 % 1018,4 hPa 0,0 l/m 2 min 0 min 426 W/m 6,4 km/h (2 Bft) 95,74 %
09.07.2023 09:18 27,2 C 31,7 C 25,0 C 66 % 1018,5 hPa 0,0 l/m 2 min 0 min 433 W/m 12,9 km/h (3 Bft) 97,87 %
09.07.2023 09:20 27,3 C 31,7 C 25,0 C 67 % 1018,4 hPa 0,0 l/m 2 min 0 min 439 W/m 6,4 km/h (2 Bft) 97,87 %
09.07.2023 09:22 27,4 C 31,7 C 25,6 C 66 % 1018,4 hPa 0,0 l/m 2 min 0 min 443 W/m 6,4 km/h (2 Bft) 95,74 %
09.07.2023 09:24 27,5 C 31,7 C 25,6 C 66 % 1018,4 hPa 0,0 l/m 2 min 0 min 445 W/m 12,9 km/h (3 Bft) 97,87 %
09.07.2023 09:26 27,6 C 31,7 C 25,6 C 66 % 1018,3 hPa 0,0 l/m 2 min 0 min 451 W/m 3,2 km/h (1 Bft) 97,83 %
09.07.2023 09:28 27,7 C 31,7 C 25,6 C 65 % 1018,3 hPa 0,0 l/m 2 min 0 min 456 W/m 12,9 km/h (3 Bft) 97,87 %
09.07.2023 09:30 27,8 C 32,2 C 25,6 C 65 % 1018,3 hPa 0,0 l/m 2 min 0 min 462 W/m 6,4 km/h (2 Bft) 97,87 %
09.07.2023 09:32 27,9 C 32,2 C 25,6 C 65 % 1018,3 hPa 0,0 l/m 2 min 0 min 469 W/m 9,7 km/h (2 Bft) 93,62 %
09.07.2023 09:34 28,1 C 32,2 C 26,1 C 65 % 1018,2 hPa 0,0 l/m 2 min 0 min 473 W/m 9,7 km/h (2 Bft) 93,62 %
09.07.2023 09:36 28,1 C 31,7 C 26,1 C 64 % 1018,3 hPa 0,0 l/m 2 min 0 min 477 W/m 6,4 km/h (2 Bft) 93,62 %
09.07.2023 09:38 28,2 C 31,7 C 26,1 C 63 % 1018,3 hPa 0,0 l/m 2 min 0 min 481 W/m 9,7 km/h (2 Bft) 93,62 %
09.07.2023 09:40 28,2 C 31,1 C 26,1 C 63 % 1018,3 hPa 0,0 l/m 2 min 0 min 487 W/m 12,9 km/h (3 Bft) 95,65 %
09.07.2023 09:42 28,3 C 31,1 C 26,1 C 63 % 1018,4 hPa 0,0 l/m 2 min 0 min 492 W/m 16,1 km/h (3 Bft) 97,87 %
09.07.2023 09:44 28,3 C 31,1 C 26,7 C 63 % 1018,4 hPa 0,0 l/m 2 min 0 min 497 W/m 12,9 km/h (3 Bft) 97,87 %
09.07.2023 09:46 28,3 C 31,1 C 26,7 C 62 % 1018,4 hPa 0,0 l/m 2 min 0 min 502 W/m 9,7 km/h (2 Bft) 97,87 %
09.07.2023 09:48 28,4 C 31,1 C 26,7 C 62 % 1018,4 hPa 0,0 l/m 2 min 0 min 507 W/m 6,4 km/h (2 Bft) 97,87 %
09.07.2023 09:50 28,4 C 31,7 C 26,7 C 62 % 1018,4 hPa 0,0 l/m 2 min 0 min 514 W/m 6,4 km/h (2 Bft) 95,74 %
09.07.2023 09:52 28,5 C 32,2 C 26,7 C 62 % 1018,3 hPa 0,0 l/m 2 min 0 min 519 W/m 3,2 km/h (1 Bft) 97,87 %
09.07.2023 09:54 28,6 C 32,2 C 27,2 C 63 % 1018,4 hPa 0,0 l/m 2 min 0 min 523 W/m 6,4 km/h (2 Bft) 97,83 %
09.07.2023 09:56 28,7 C 31,7 C 27,2 C 62 % 1018,3 hPa 0,0 l/m 2 min 0 min 530 W/m 6,4 km/h (2 Bft) 97,87 %
09.07.2023 09:58 28,7 C 31,7 C 27,2 C 62 % 1018,3 hPa 0,0 l/m 2 min 0 min 536 W/m 6,4 km/h (2 Bft) 97,87 %
09.07.2023 10:00 28,8 C 32,2 C 27,2 C 63 % 1018,3 hPa 0,0 l/m 2 min 0 min 541 W/m 3,2 km/h (1 Bft) 97,87 %
09.07.2023 10:02 28,9 C 32,2 C 27,2 C 62 % 1018,3 hPa 0,0 l/m 2 min 0 min 546 W/m 6,4 km/h (2 Bft) 97,87 %
09.07.2023 10:04 29,0 C 32,8 C 27,2 C 62 % 1018,3 hPa 0,0 l/m 2 min 0 min 550 W/m 6,4 km/h (2 Bft) 97,92 %
09.07.2023 10:06 29,1 C 32,2 C 27,2 C 62 % 1018,3 hPa 0,0 l/m 2 min 0 min 556 W/m 12,9 km/h (3 Bft) 95,74 %
09.07.2023 10:08 29,2 C 32,8 C 27,2 C 62 % 1018,2 hPa 0,0 l/m 2 min 0 min 561 W/m 9,7 km/h (2 Bft) 100,00 %
09.07.2023 10:10 29,3 C 32,8 C 27,2 C 62 % 1018,3 hPa 0,0 l/m 2 min 0 min 566 W/m 6,4 km/h (2 Bft) 97,87 %
09.07.2023 10:12 29,4 C 32,2 C 27,2 C 61 % 1018,3 hPa 0,0 l/m 2 min 0 min 571 W/m 12,9 km/h (3 Bft) 95,65 %
09.07.2023 10:14 29,4 C 32,2 C 27,8 C 61 % 1018,3 hPa 0,0 l/m 2 min 0 min 575 W/m 6,4 km/h (2 Bft) 97,87 %
09.07.2023 10:16 29,5 C 32,8 C 27,8 C 61 % 1018,3 hPa 0,0 l/m 2 min 0 min 580 W/m 6,4 km/h (2 Bft) 97,87 %
09.07.2023 10:18 29,6 C 32,2 C 27,8 C 61 % 1018,3 hPa 0,0 l/m 2 min 0 min 586 W/m 12,9 km/h (3 Bft) 100,00 %
09.07.2023 10:20 29,6 C 32,2 C 27,2 C 61 % 1018,2 hPa 0,0 l/m 2 min 0 min 591 W/m 12,9 km/h (3 Bft) 100,00 %
09.07.2023 10:22 29,7 C 32,2 C 27,2 C 61 % 1018,2 hPa 0,0 l/m 2 min 0 min 595 W/m 12,9 km/h (3 Bft) 95,74 %
09.07.2023 10:24 29,8 C 32,2 C 26,7 C 61 % 1018,2 hPa 0,0 l/m 2 min 0 min 601 W/m 12,9 km/h (3 Bft) 100,00 %
09.07.2023 10:26 29,8 C 32,2 C 26,7 C 60 % 1018,2 hPa 0,0 l/m 2 min 0 min 604 W/m 6,4 km/h (2 Bft) 95,74 %
09.07.2023 10:28 29,9 C 31,7 C 26,7 C 61 % 1018,1 hPa 0,0 l/m 2 min 0 min 608 W/m 6,4 km/h (2 Bft) 97,83 %
09.07.2023 10:30 30,0 C 32,2 C 26,7 C 61 % 1018,1 hPa 0,0 l/m 2 min 0 min 613 W/m 6,4 km/h (2 Bft) 100,00 %
09.07.2023 10:32 30,1 C 32,2 C 27,2 C 61 % 1018,0 hPa 0,0 l/m 2 min 0 min 619 W/m 6,4 km/h (2 Bft) 100,00 %
09.07.2023 10:34 30,2 C 32,2 C 27,2 C 61 % 1018,0 hPa 0,0 l/m 2 min 0 min 625 W/m 6,4 km/h (2 Bft) 97,87 %
09.07.2023 10:36 30,3 C 31,7 C 27,2 C 60 % 1018,0 hPa 0,0 l/m 2 min 0 min 631 W/m 6,4 km/h (2 Bft) 100,00 %
09.07.2023 10:38 30,4 C 32,2 C 27,8 C 60 % 1018,0 hPa 0,0 l/m 2 min 0 min 634 W/m 6,4 km/h (2 Bft) 100,00 %
09.07.2023 10:40 30,4 C 31,7 C 27,8 C 60 % 1018,0 hPa 0,0 l/m 2 min 0 min 639 W/m 6,4 km/h (2 Bft) 100,00 %
09.07.2023 10:42 30,6 C 31,7 C 27,8 C 59 % 1017,9 hPa 0,0 l/m 2 min 0 min 643 W/m 6,4 km/h (2 Bft) 97,83 %
09.07.2023 10:44 30,6 C 31,7 C 28,3 C 58 % 1018,0 hPa 0,0 l/m 2 min 0 min 648 W/m 3,2 km/h (1 Bft) 97,87 %
09.07.2023 10:46 30,7 C 31,7 C 28,9 C 58 % 1018,0 hPa 0,0 l/m 2 min 0 min 655 W/m 6,4 km/h (2 Bft) 100,00 %
09.07.2023 10:48 30,7 C 31,7 C 29,4 C 57 % 1018,0 hPa 0,0 l/m 2 min 0 min 659 W/m 12,9 km/h (3 Bft) 100,00 %
09.07.2023 10:50 30,9 C 31,7 C 29,4 C 58 % 1018,0 hPa 0,0 l/m 2 min 0 min 665 W/m 6,4 km/h (2 Bft) 97,87 %
09.07.2023 10:52 30,9 C 31,7 C 29,4 C 57 % 1018,0 hPa 0,0 l/m 2 min 0 min 681 W/m 6,4 km/h (2 Bft) 95,74 %
09.07.2023 10:54 31,1 C 31,7 C 29,4 C 57 % 1018,0 hPa 0,0 l/m 2 min 0 min 678 W/m 6,4 km/h (2 Bft) 97,87 %
09.07.2023 10:56 31,1 C 32,2 C 29,4 C 57 % 1018,0 hPa 0,0 l/m 2 min 0 min 682 W/m 6,4 km/h (2 Bft) 97,83 %
09.07.2023 10:58 31,2 C 32,2 C 28,9 C 57 % 1018,0 hPa 0,0 l/m 2 min 0 min 686 W/m 6,4 km/h (2 Bft) 97,87 %
09.07.2023 11:00 31,3 C 32,8 C 28,9 C 56 % 1018,1 hPa 0,0 l/m 2 min 0 min 695 W/m 6,4 km/h (2 Bft) 95,74 %
09.07.2023 11:02 31,4 C 32,2 C 28,3 C 55 % 1018,1 hPa 0,0 l/m 2 min 0 min 701 W/m 6,4 km/h (2 Bft) 95,74 %
09.07.2023 11:04 31,4 C 32,8 C 28,3 C 56 % 1018,0 hPa 0,0 l/m 2 min 0 min 705 W/m 9,7 km/h (2 Bft) 95,92 %
09.07.2023 11:06 31,6 C 32,8 C 28,3 C 56 % 1017,9 hPa 0,0 l/m 2 min 0 min 710 W/m 9,7 km/h (2 Bft) 93,10 %
09.07.2023 11:08 31,6 C 33,3 C 28,3 C 56 % 1017,9 hPa 0,0 l/m 2 min 0 min 714 W/m 9,7 km/h (2 Bft) 91,67 %
09.07.2023 11:10 31,7 C 33,3 C 28,3 C 55 % 1017,9 hPa 0,0 l/m 2 min 0 min 716 W/m 9,7 km/h (2 Bft) 93,48 %
09.07.2023 11:12 31,8 C 33,9 C 28,3 C 55 % 1017,9 hPa 0,0 l/m 2 min 0 min 723 W/m 12,9 km/h (3 Bft) 95,74 %
09.07.2023 11:14 31,9 C 33,9 C 28,3 C 55 % 1017,9 hPa 0,0 l/m 2 min 0 min 727 W/m 3,2 km/h (1 Bft) 95,74 %
09.07.2023 11:16 32,1 C 34,4 C 28,9 C 55 % 1017,8 hPa 0,0 l/m 2 min 0 min 733 W/m 6,4 km/h (2 Bft) 95,74 %
09.07.2023 11:18 32,2 C 34,4 C 28,9 C 55 % 1017,8 hPa 0,0 l/m 2 min 0 min 737 W/m 6,4 km/h (2 Bft) 89,36 %
09.07.2023 11:20 32,3 C 34,4 C 28,3 C 55 % 1017,8 hPa 0,0 l/m 2 min 0 min 739 W/m 6,4 km/h (2 Bft) 95,74 %
09.07.2023 11:22 32,4 C 34,4 C 28,9 C 54 % 1017,8 hPa 0,0 l/m 2 min 0 min 745 W/m 12,9 km/h (3 Bft) 95,74 %
09.07.2023 11:24 32,4 C 33,9 C 28,9 C 53 % 1017,7 hPa 0,0 l/m 2 min 0 min 746 W/m 16,1 km/h (3 Bft) 97,83 %
09.07.2023 11:26 32,4 C 33,9 C 28,9 C 52 % 1017,8 hPa 0,0 l/m 2 min 0 min 750 W/m 16,1 km/h (3 Bft) 97,87 %
09.07.2023 11:28 32,5 C 33,9 C 29,4 C 53 % 1017,7 hPa 0,0 l/m 2 min 0 min 755 W/m 6,4 km/h (2 Bft) 100,00 %
09.07.2023 11:30 32,6 C 35,0 C 30,0 C 53 % 1017,7 hPa 0,0 l/m 2 min 0 min 769 W/m 12,9 km/h (3 Bft) 100,00 %
09.07.2023 11:32 32,6 C 34,4 C 30,0 C 52 % 1017,7 hPa 0,0 l/m 2 min 0 min 758 W/m 16,1 km/h (3 Bft) 97,87 %
09.07.2023 11:34 32,7 C 35,0 C 30,6 C 53 % 1017,7 hPa 0,0 l/m 2 min 0 min 762 W/m 3,2 km/h (1 Bft) 100,00 %
09.07.2023 11:36 32,8 C 35,0 C 30,6 C 53 % 1017,6 hPa 0,0 l/m 2 min 0 min 762 W/m 16,1 km/h (3 Bft) 100,00 %
09.07.2023 11:38 32,8 C 35,0 C 30,6 C 52 % 1017,7 hPa 0,0 l/m 2 min 0 min 765 W/m 9,7 km/h (2 Bft) 100,00 %
09.07.2023 11:40 32,9 C 35,6 C 30,6 C 52 % 1017,6 hPa 0,0 l/m 2 min 0 min 769 W/m 6,4 km/h (2 Bft) 100,00 %
09.07.2023 11:42 33,0 C 36,1 C 31,1 C 52 % 1017,6 hPa 0,0 l/m 2 min 0 min 773 W/m 6,4 km/h (2 Bft) 100,00 %
09.07.2023 11:44 33,1 C 36,7 C 32,2 C 52 % 1017,7 hPa 0,0 l/m 2 min 0 min 779 W/m 6,4 km/h (2 Bft) 100,00 %
09.07.2023 11:46 33,2 C 36,7 C 32,2 C 52 % 1017,6 hPa 0,0 l/m 2 min 0 min 783 W/m 6,4 km/h (2 Bft) 100,00 %
09.07.2023 11:48 33,3 C 36,7 C 33,3 C 52 % 1017,6 hPa 0,0 l/m 2 min 0 min 787 W/m 6,4 km/h (2 Bft) 100,00 %
09.07.2023 11:50 33,4 C 37,2 C 33,9 C 52 % 1017,6 hPa 0,0 l/m 2 min 0 min 788 W/m 12,9 km/h (3 Bft) 100,00 %
09.07.2023 11:52 33,4 C 37,2 C 33,9 C 52 % 1017,6 hPa 0,0 l/m 2 min 0 min 790 W/m 3,2 km/h (1 Bft) 100,00 %
09.07.2023 11:54 33,6 C 37,2 C 33,3 C 51 % 1017,6 hPa 0,0 l/m 2 min 0 min 794 W/m 12,9 km/h (3 Bft) 100,00 %
09.07.2023 11:56 33,6 C 36,7 C 33,3 C 51 % 1017,6 hPa 0,0 l/m 2 min 0 min 795 W/m 12,9 km/h (3 Bft) 100,00 %
09.07.2023 11:58 33,7 C 36,7 C 32,8 C 51 % 1017,6 hPa 0,0 l/m 2 min 0 min 795 W/m 6,4 km/h (2 Bft) 100,00 %
09.07.2023 12:00 33,7 C 36,7 C 31,7 C 51 % 1017,6 hPa 0,0 l/m 2 min 0 min 799 W/m 9,7 km/h (2 Bft) 100,00 %
09.07.2023 12:02 33,8 C 37,2 C 31,7 C 51 % 1017,5 hPa 0,0 l/m 2 min 0 min 801 W/m 6,4 km/h (2 Bft) 100,00 %
09.07.2023 12:04 33,9 C 37,8 C 31,7 C 52 % 1017,6 hPa 0,0 l/m 2 min 0 min 808 W/m 6,4 km/h (2 Bft) 100,00 %
09.07.2023 12:07 34,0 C 37,2 C 31,1 C 51 % 1017,5 hPa 0,0 l/m 3 min 0 min 814 W/m 12,9 km/h (3 Bft) 100,00 %
09.07.2023 12:08 34,1 C 37,8 C 31,1 C 51 % 1017,4 hPa 0,0 l/m 1 min 0 min 813 W/m 12,9 km/h (3 Bft) 100,00 %
09.07.2023 12:12 34,2 C 37,2 C 31,1 C 50 % 1017,4 hPa 0,0 l/m 4 min 0 min 800 W/m 6,4 km/h (2 Bft) 100,00 %
09.07.2023 12:14 34,2 C 37,2 C 31,7 C 50 % 1017,4 hPa 0,0 l/m 2 min 0 min 823 W/m 12,9 km/h (3 Bft) 100,00 %
09.07.2023 12:16 34,3 C 37,2 C 31,7 C 50 % 1017,3 hPa 0,0 l/m 2 min 0 min 825 W/m 12,9 km/h (3 Bft) 100,00 %
09.07.2023 12:18 34,3 C 37,2 C 31,7 C 49 % 1017,3 hPa 0,0 l/m 2 min 0 min 828 W/m 6,4 km/h (2 Bft) 100,00 %
09.07.2023 12:20 34,4 C 37,8 C 31,7 C 50 % 1017,3 hPa 0,0 l/m 2 min 0 min 833 W/m 6,4 km/h (2 Bft) 100,00 %
09.07.2023 12:26 34,5 C 37,8 C 33,3 C 48 % 1017,4 hPa 0,0 l/m 5 min 0 min 832 W/m 9,7 km/h (2 Bft) 95,00 %
09.07.2023 12:31 34,8 C 39,4 C 36,7 C 49 % 1017,5 hPa 0,0 l/m 5 min 0 min 837 W/m 12,9 km/h (3 Bft) 94,12 %
09.07.2023 12:32 34,8 C 39,4 C 36,7 C 48 % 1017,5 hPa 0,0 l/m 1 min 0 min 844 W/m 6,4 km/h (2 Bft) 91,67 %
09.07.2023 12:34 34,9 C 39,4 C 37,2 C 48 % 1017,5 hPa 0,0 l/m 2 min 0 min 845 W/m 9,7 km/h (2 Bft) 95,74 %
09.07.2023 12:36 35,0 C 38,9 C 37,2 C 47 % 1017,5 hPa 0,0 l/m 2 min 0 min 846 W/m 12,9 km/h (3 Bft) 95,65 %
09.07.2023 12:38 35,1 C 38,3 C 37,2 C 45 % 1017,5 hPa 0,0 l/m 2 min 0 min 846 W/m 16,1 km/h (3 Bft) 95,74 %
09.07.2023 12:40 35,1 C 38,3 C 37,8 C 45 % 1017,5 hPa 0,0 l/m 2 min 0 min 849 W/m 16,1 km/h (3 Bft) 95,74 %
09.07.2023 12:42 35,1 C 38,9 C 37,8 C 47 % 1017,5 hPa 0,0 l/m 2 min 0 min 851 W/m 6,4 km/h (2 Bft) 93,62 %
09.07.2023 12:44 35,2 C 39,4 C 38,3 C 47 % 1017,5 hPa 0,0 l/m 2 min 0 min 854 W/m 9,7 km/h (2 Bft) 91,49 %
09.07.2023 12:46 35,3 C 39,4 C 38,3 C 45 % 1017,6 hPa 0,0 l/m 2 min 0 min 853 W/m 12,9 km/h (3 Bft) 93,62 %
09.07.2023 12:48 35,4 C 39,4 C 38,3 C 45 % 1017,5 hPa 0,0 l/m 2 min 0 min 851 W/m 6,4 km/h (2 Bft) 91,49 %
09.07.2023 12:50 35,4 C 39,4 C 37,8 C 45 % 1017,5 hPa 0,0 l/m 2 min 0 min 852 W/m 12,9 km/h (3 Bft) 93,48 %
09.07.2023 12:52 35,5 C 39,4 C 37,8 C 45 % 1017,4 hPa 0,0 l/m 2 min 0 min 862 W/m 6,4 km/h (2 Bft) 93,62 %
09.07.2023 12:54 35,6 C 39,4 C 36,7 C 45 % 1017,4 hPa 0,0 l/m 2 min 0 min 865 W/m 6,4 km/h (2 Bft) 93,62 %
09.07.2023 12:56 35,7 C 39,4 C 36,1 C 44 % 1017,4 hPa 0,0 l/m 2 min 0 min 864 W/m 6,4 km/h (2 Bft) 91,49 %
09.07.2023 12:58 35,7 C 39,4 C 35,0 C 44 % 1017,3 hPa 0,0 l/m 2 min 0 min 869 W/m 12,9 km/h (3 Bft) 93,62 %
09.07.2023 13:00 35,7 C 39,4 C 35,0 C 45 % 1017,3 hPa 0,0 l/m 2 min 0 min 868 W/m 12,9 km/h (3 Bft) 93,62 %
09.07.2023 13:02 35,8 C 38,9 C 33,9 C 44 % 1017,3 hPa 0,0 l/m 2 min 0 min 866 W/m 12,9 km/h (3 Bft) 89,36 %
09.07.2023 13:04 35,8 C 38,9 C 33,3 C 44 % 1017,2 hPa 0,0 l/m 2 min 0 min 870 W/m 12,9 km/h (3 Bft) 93,75 %
09.07.2023 13:06 35,8 C 38,9 C 32,8 C 44 % 1017,1 hPa 0,0 l/m 2 min 0 min 876 W/m 9,7 km/h (2 Bft) 95,74 %
09.07.2023 13:08 35,8 C 38,3 C 32,2 C 44 % 1017,1 hPa 0,0 l/m 2 min 0 min 872 W/m 22,5 km/h (4 Bft) 95,74 %
09.07.2023 13:10 35,8 C 38,3 C 32,2 C 44 % 1017,0 hPa 0,0 l/m 2 min 0 min 871 W/m 19,3 km/h (3 Bft) 95,74 %
09.07.2023 13:12 35,7 C 38,3 C 31,7 C 43 % 1017,0 hPa 0,0 l/m 2 min 0 min 869 W/m 22,5 km/h (4 Bft) 95,74 %
09.07.2023 13:14 35,8 C 38,9 C 31,7 C 43 % 1017,0 hPa 0,0 l/m 2 min 0 min 873 W/m 12,9 km/h (3 Bft) 97,87 %
09.07.2023 13:16 35,8 C 39,4 C 31,7 C 45 % 1017,0 hPa 0,0 l/m 2 min 0 min 870 W/m 9,7 km/h (2 Bft) 95,65 %
09.07.2023 13:18 35,9 C 40,0 C 31,7 C 45 % 1017,0 hPa 0,0 l/m 2 min 0 min 859 W/m 6,4 km/h (2 Bft) 95,74 %
09.07.2023 13:20 36,0 C 40,0 C 31,7 C 45 % 1017,0 hPa 0,0 l/m 2 min 0 min 864 W/m 12,9 km/h (3 Bft) 97,87 %
09.07.2023 13:22 36,1 C 40,6 C 31,7 C 44 % 1016,9 hPa 0,0 l/m 2 min 0 min 856 W/m 6,4 km/h (2 Bft) 97,87 %
09.07.2023 13:24 36,1 C 40,6 C 31,7 C 44 % 1017,0 hPa 0,0 l/m 2 min 0 min 865 W/m 12,9 km/h (3 Bft) 93,62 %
09.07.2023 13:26 36,2 C 40,6 C 31,7 C 43 % 1016,9 hPa 0,0 l/m 2 min 0 min 820 W/m 9,7 km/h (2 Bft) 100,00 %
09.07.2023 13:28 36,2 C 40,6 C 31,7 C 44 % 1016,9 hPa 0,0 l/m 2 min 0 min 798 W/m 9,7 km/h (2 Bft) 100,00 %
09.07.2023 13:30 36,3 C 40,0 C 31,7 C 44 % 1016,9 hPa 0,0 l/m 2 min 0 min 794 W/m 12,9 km/h (3 Bft) 100,00 %
09.07.2023 13:32 36,3 C 39,4 C 31,7 C 43 % 1016,9 hPa 0,0 l/m 2 min 0 min 758 W/m 12,9 km/h (3 Bft) 97,87 %
09.07.2023 13:34 36,2 C 39,4 C 31,7 C 44 % 1016,9 hPa 0,0 l/m 2 min 0 min 717 W/m 16,1 km/h (3 Bft) 97,87 %
09.07.2023 13:36 36,2 C 39,4 C 31,7 C 44 % 1016,9 hPa 0,0 l/m 2 min 0 min 743 W/m 9,7 km/h (2 Bft) 100,00 %
09.07.2023 13:38 36,2 C 39,4 C 32,2 C 44 % 1016,8 hPa 0,0 l/m 2 min 0 min 754 W/m 9,7 km/h (2 Bft) 100,00 %
09.07.2023 13:40 36,2 C 39,4 C 32,2 C 44 % 1016,8 hPa 0,0 l/m 2 min 0 min 707 W/m 6,4 km/h (2 Bft) 100,00 %
09.07.2023 13:42 36,2 C 39,4 C 32,2 C 44 % 1016,8 hPa 0,0 l/m 2 min 0 min 732 W/m 19,3 km/h (3 Bft) 97,83 %
09.07.2023 13:44 36,2 C 39,4 C 32,2 C 45 % 1016,8 hPa 0,0 l/m 2 min 0 min 734 W/m 19,3 km/h (3 Bft) 100,00 %
09.07.2023 13:46 36,2 C 39,4 C 32,8 C 44 % 1016,8 hPa 0,0 l/m 2 min 0 min 809 W/m 6,4 km/h (2 Bft) 95,74 %
09.07.2023 13:48 36,2 C 40,0 C 33,3 C 45 % 1016,9 hPa 0,0 l/m 2 min 0 min 843 W/m 9,7 km/h (2 Bft) 97,87 %
09.07.2023 13:50 36,2 C 40,0 C 33,9 C 44 % 1016,8 hPa 0,0 l/m 2 min 0 min 848 W/m 16,1 km/h (3 Bft) 97,87 %
09.07.2023 13:52 36,2 C 39,4 C 34,4 C 44 % 1016,8 hPa 0,0 l/m 2 min 0 min 833 W/m 12,9 km/h (3 Bft) 100,00 %
09.07.2023 13:54 36,2 C 39,4 C 35,0 C 45 % 1016,9 hPa 0,0 l/m 2 min 0 min 817 W/m 16,1 km/h (3 Bft) 100,00 %
09.07.2023 13:56 36,2 C 38,9 C 35,0 C 45 % 1016,8 hPa 0,0 l/m 2 min 0 min 811 W/m 12,9 km/h (3 Bft) 100,00 %
09.07.2023 13:58 36,2 C 39,4 C 35,0 C 45 % 1016,9 hPa 0,0 l/m 2 min 0 min 839 W/m 9,7 km/h (2 Bft) 100,00 %
09.07.2023 14:00 36,3 C 38,9 C 35,0 C 45 % 1016,8 hPa 0,0 l/m 2 min 0 min 732 W/m 6,4 km/h (2 Bft) 97,87 %
09.07.2023 14:02 36,3 C 39,4 C 34,4 C 46 % 1016,8 hPa 0,0 l/m 2 min 0 min 753 W/m 9,7 km/h (2 Bft) 100,00 %
09.07.2023 14:04 36,3 C 39,4 C 33,9 C 45 % 1016,9 hPa 0,0 l/m 2 min 0 min 707 W/m 6,4 km/h (2 Bft) 100,00 %
09.07.2023 14:06 36,3 C 38,9 C 33,3 C 44 % 1016,9 hPa 0,0 l/m 2 min 0 min 687 W/m 22,5 km/h (4 Bft) 100,00 %
09.07.2023 14:08 36,3 C 38,9 C 33,3 C 45 % 1017,0 hPa 0,0 l/m 2 min 0 min 659 W/m 9,7 km/h (2 Bft) 100,00 %
09.07.2023 14:10 36,2 C 37,8 C 32,8 C 46 % 1017,0 hPa 0,0 l/m 2 min 0 min 588 W/m 12,9 km/h (3 Bft) 100,00 %
09.07.2023 14:12 36,2 C 36,7 C 32,2 C 45 % 1016,9 hPa 0,0 l/m 0 min 0 min 316 W/m 12,9 km/h (3 Bft) 97,83 %
09.07.2023 14:14 36,1 C 36,1 C 32,2 C 46 % 1016,9 hPa 0,0 l/m 0 min 0 min 302 W/m 6,4 km/h (2 Bft) 100,00 %
09.07.2023 14:16 36,1 C 35,6 C 31,7 C 45 % 1016,8 hPa 0,0 l/m 0 min 0 min 300 W/m 12,9 km/h (3 Bft) 100,00 %
09.07.2023 14:18 36,0 C 35,6 C 31,1 C 45 % 1016,9 hPa 0,0 l/m 0 min 0 min 309 W/m 12,9 km/h (3 Bft) 97,87 %
09.07.2023 14:20 35,9 C 36,1 C 31,1 C 45 % 1016,8 hPa 0,0 l/m 2 min 0 min 461 W/m 16,1 km/h (3 Bft) 100,00 %
09.07.2023 14:22 35,8 C 35,6 C 31,1 C 45 % 1016,8 hPa 0,0 l/m 0 min 0 min 344 W/m 16,1 km/h (3 Bft) 97,87 %
09.07.2023 14:24 35,7 C 35,6 C 31,1 C 46 % 1016,8 hPa 0,0 l/m 0 min 0 min 307 W/m 12,9 km/h (3 Bft) 100,00 %
09.07.2023 14:26 35,7 C 35,6 C 31,1 C 45 % 1016,8 hPa 0,0 l/m 0 min 0 min 372 W/m 6,4 km/h (2 Bft) 100,00 %
09.07.2023 14:28 35,7 C 35,6 C 30,6 C 46 % 1016,7 hPa 0,0 l/m 0 min 0 min 304 W/m 9,7 km/h (2 Bft) 97,87 %
09.07.2023 14:30 35,6 C 35,0 C 30,6 C 46 % 1016,7 hPa 0,0 l/m 0 min 0 min 279 W/m 9,7 km/h (2 Bft) 93,62 %
09.07.2023 14:35 35,3 C 34,4 C 30,6 C 46 % 1016,6 hPa 0,0 l/m 0 min 0 min 243 W/m 16,1 km/h (3 Bft) 99,12 %
09.07.2023 14:38 35,2 C 34,4 C 30,0 C 46 % 1016,6 hPa 0,0 l/m 0 min 0 min 221 W/m 6,4 km/h (2 Bft) 100,00 %
09.07.2023 14:40 35,2 C 34,4 C 30,0 C 46 % 1016,6 hPa 0,0 l/m 0 min 0 min 198 W/m 6,4 km/h (2 Bft) 95,74 %
09.07.2023 14:42 35,1 C 33,9 C 30,0 C 47 % 1016,5 hPa 0,0 l/m 0 min 0 min 188 W/m 3,2 km/h (1 Bft) 97,30 %
09.07.2023 14:44 35,1 C 33,9 C 29,4 C 47 % 1016,5 hPa 0,0 l/m 0 min 0 min 186 W/m 9,7 km/h (2 Bft) 95,74 %
09.07.2023 14:46 35,0 C 33,9 C 29,4 C 48 % 1016,5 hPa 0,0 l/m 0 min 0 min 180 W/m 6,4 km/h (2 Bft) 95,74 %
09.07.2023 14:48 34,9 C 33,3 C 28,9 C 48 % 1016,5 hPa 0,0 l/m 0 min 0 min 173 W/m 3,2 km/h (1 Bft) 95,74 %
09.07.2023 14:50 34,8 C 33,3 C 28,9 C 47 % 1016,4 hPa 0,0 l/m 0 min 0 min 166 W/m 3,2 km/h (1 Bft) 97,87 %
09.07.2023 14:52 34,8 C 33,3 C 28,9 C 47 % 1016,4 hPa 0,0 l/m 0 min 0 min 160 W/m 6,4 km/h (2 Bft) 95,65 %
09.07.2023 14:54 34,7 C 33,3 C 28,9 C 47 % 1016,4 hPa 0,0 l/m 0 min 0 min 162 W/m 3,2 km/h (1 Bft) 96,08 %
09.07.2023 14:56 34,7 C 33,3 C 28,3 C 48 % 1016,4 hPa 0,0 l/m 0 min 0 min 159 W/m 3,2 km/h (1 Bft) 93,75 %
09.07.2023 14:58 34,6 C 32,8 C 28,3 C 48 % 1016,3 hPa 0,0 l/m 0 min 0 min 151 W/m 3,2 km/h (1 Bft) 97,87 %
09.07.2023 15:00 34,5 C 32,8 C 28,3 C 49 % 1016,3 hPa 0,0 l/m 0 min 0 min 141 W/m 3,2 km/h (1 Bft) 97,87 %
09.07.2023 15:02 34,4 C 32,8 C 28,3 C 50 % 1016,4 hPa 0,0 l/m 0 min 0 min 130 W/m 3,2 km/h (1 Bft) 95,74 %
09.07.2023 15:04 34,3 C 32,2 C 27,8 C 50 % 1016,3 hPa 0,0 l/m 0 min 0 min 118 W/m 3,2 km/h (1 Bft) 97,87 %
09.07.2023 15:06 34,2 C 32,2 C 27,8 C 50 % 1016,3 hPa 0,0 l/m 0 min 0 min 112 W/m 3,2 km/h (1 Bft) 98,28 %
09.07.2023 15:08 34,2 C 32,2 C 27,8 C 50 % 1016,3 hPa 0,0 l/m 0 min 0 min 109 W/m 3,2 km/h (1 Bft) 97,14 %
09.07.2023 15:10 34,1 C 32,2 C 27,8 C 50 % 1016,2 hPa 0,0 l/m 0 min 0 min 109 W/m 3,2 km/h (1 Bft) 97,87 %
09.07.2023 15:12 34,1 C 32,2 C 27,8 C 51 % 1016,3 hPa 0,0 l/m 0 min 0 min 109 W/m 3,2 km/h (1 Bft) 93,62 %
09.07.2023 15:14 34,1 C 31,7 C 27,2 C 51 % 1016,2 hPa 0,0 l/m 0 min 0 min 113 W/m 3,2 km/h (1 Bft) 97,87 %
09.07.2023 15:16 34,0 C 31,7 C 27,2 C 52 % 1016,1 hPa 0,0 l/m 0 min 0 min 112 W/m 0,0 km/h (0 Bft) 97,87 %
09.07.2023 15:18 33,9 C 31,7 C 27,2 C 52 % 1016,1 hPa 0,0 l/m 0 min 0 min 104 W/m 3,2 km/h (1 Bft) 95,65 %
09.07.2023 15:20 33,8 C 31,7 C 27,2 C 52 % 1016,1 hPa 0,0 l/m 0 min 0 min 93 W/m 3,2 km/h (1 Bft) 97,87 %
09.07.2023 15:22 33,8 C 31,1 C 26,7 C 51 % 1016,1 hPa 0,0 l/m 0 min 0 min 80 W/m 0,0 km/h (0 Bft) 97,87 %
09.07.2023 15:24 33,8 C 31,1 C 26,7 C 53 % 1016,1 hPa 0,0 l/m 0 min 0 min 68 W/m 0,0 km/h (0 Bft) 97,87 %
09.07.2023 15:26 33,7 C 31,1 C 26,7 C 54 % 1016,0 hPa 0,0 l/m 0 min 0 min 59 W/m 0,0 km/h (0 Bft) 100,00 %
09.07.2023 15:28 33,6 C 30,6 C 26,7 C 53 % 1016,1 hPa 0,0 l/m 0 min 0 min 51 W/m 3,2 km/h (1 Bft) 100,00 %
09.07.2023 15:30 33,5 C 30,6 C 26,7 C 54 % 1016,2 hPa 0,0 l/m 0 min 0 min 43 W/m 0,0 km/h (0 Bft) 97,83 %
09.07.2023 15:32 33,4 C 30,6 C 26,1 C 54 % 1016,2 hPa 0,0 l/m 0 min 0 min 36 W/m 3,2 km/h (1 Bft) 97,87 %
09.07.2023 15:34 33,4 C 30,6 C 26,1 C 54 % 1016,3 hPa 0,0 l/m 0 min 0 min 31 W/m 3,2 km/h (1 Bft) 97,87 %
09.07.2023 15:36 33,3 C 30,0 C 26,1 C 55 % 1016,3 hPa 0,0 l/m 0 min 0 min 26 W/m 3,2 km/h (1 Bft) 97,87 %
09.07.2023 15:38 33,2 C 30,0 C 26,1 C 55 % 1016,3 hPa 0,0 l/m 0 min 0 min 22 W/m 3,2 km/h (1 Bft) 95,74 %
09.07.2023 15:40 33,1 C 30,6 C 26,1 C 53 % 1016,2 hPa 0,0 l/m 0 min 0 min 18 W/m 9,7 km/h (2 Bft) 97,87 %
09.07.2023 15:42 33,1 C 30,6 C 26,1 C 54 % 1016,1 hPa 0,0 l/m 0 min 0 min 15 W/m 9,7 km/h (2 Bft) 97,87 %
09.07.2023 15:44 32,9 C 30,0 C 26,1 C 54 % 1016,2 hPa 0,0 l/m 0 min 0 min 12 W/m 0,0 km/h (0 Bft) 97,96 %
09.07.2023 15:46 32,7 C 30,0 C 25,0 C 55 % 1016,3 hPa 0,0 l/m 0 min 0 min 11 W/m 0,0 km/h (0 Bft) 97,87 %
09.07.2023 15:48 32,6 C 30,0 C 23,3 C 58 % 1016,4 hPa 0,2 l/m 0 min 2 min 11 W/m 0,0 km/h (0 Bft) 97,87 %
09.07.2023 15:50 32,4 C 28,9 C 21,7 C 61 % 1016,5 hPa 0,4 l/m 0 min 2 min 9 W/m 29,0 km/h (5 Bft) 97,87 %
09.07.2023 15:52 32,2 C 27,2 C 21,1 C 63 % 1016,5 hPa 0,4 l/m 0 min 2 min 11 W/m 16,1 km/h (3 Bft) 95,74 %
09.07.2023 15:54 31,6 C 26,7 C 20,0 C 65 % 1016,5 hPa 0,0 l/m 0 min 2 min 11 W/m 6,4 km/h (2 Bft) 97,37 %
09.07.2023 15:56 31,1 C 26,1 C 20,0 C 65 % 1016,5 hPa 0,0 l/m 0 min 2 min 11 W/m 6,4 km/h (2 Bft) 97,87 %
09.07.2023 15:58 30,8 C 25,6 C 19,4 C 66 % 1016,4 hPa 0,0 l/m 0 min 2 min 12 W/m 3,2 km/h (1 Bft) 95,92 %
09.07.2023 16:00 30,6 C 25,6 C 20,0 C 69 % 1016,4 hPa 0,0 l/m 0 min 0 min 12 W/m 3,2 km/h (1 Bft) 95,74 %
09.07.2023 16:02 30,4 C 25,0 C 20,0 C 71 % 1016,5 hPa 0,0 l/m 0 min 2 min 12 W/m 3,2 km/h (1 Bft) 97,87 %
09.07.2023 16:04 30,2 C 25,0 C 20,0 C 73 % 1016,4 hPa 0,0 l/m 0 min 2 min 12 W/m 0,0 km/h (0 Bft) 95,74 %
09.07.2023 16:06 29,9 C 25,0 C 20,0 C 74 % 1016,6 hPa 0,0 l/m 0 min 0 min 12 W/m 6,4 km/h (2 Bft) 98,33 %
09.07.2023 16:08 29,7 C 25,0 C 20,0 C 75 % 1016,7 hPa 0,0 l/m 0 min 2 min 11 W/m 3,2 km/h (1 Bft) 97,22 %
09.07.2023 16:10 29,3 C 25,0 C 20,0 C 75 % 1016,7 hPa 0,0 l/m 0 min 0 min 10 W/m 3,2 km/h (1 Bft) 95,65 %
09.07.2023 16:12 29,1 C 25,0 C 20,0 C 76 % 1017,1 hPa 0,0 l/m 0 min 0 min 9 W/m 12,9 km/h (3 Bft) 100,00 %
09.07.2023 16:14 28,8 C 25,0 C 20,0 C 76 % 1017,5 hPa 0,0 l/m 0 min 0 min 8 W/m 16,1 km/h (3 Bft) 97,87 %
09.07.2023 16:16 28,3 C 25,6 C 19,4 C 74 % 1017,8 hPa 0,0 l/m 0 min 0 min 7 W/m 29,0 km/h (5 Bft) 100,00 %
09.07.2023 16:18 27,9 C 25,6 C 18,9 C 71 % 1018,0 hPa 0,0 l/m 0 min 0 min 9 W/m 19,3 km/h (3 Bft) 100,00 %
09.07.2023 16:20 27,6 C 25,6 C 18,3 C 70 % 1018,1 hPa 0,0 l/m 0 min 0 min 9 W/m 29,0 km/h (5 Bft) 97,87 %
09.07.2023 16:22 27,2 C 25,6 C 17,8 C 68 % 1018,3 hPa 0,0 l/m 0 min 0 min 9 W/m 25,7 km/h (4 Bft) 97,87 %
09.07.2023 16:24 27,1 C 25,6 C 17,8 C 69 % 1018,2 hPa 0,0 l/m 0 min 0 min 11 W/m 25,7 km/h (4 Bft) 97,83 %
09.07.2023 16:26 26,9 C 25,6 C 17,8 C 70 % 1018,2 hPa 0,0 l/m 0 min 2 min 11 W/m 19,3 km/h (3 Bft) 97,87 %
09.07.2023 16:28 26,9 C 25,0 C 17,8 C 71 % 1018,1 hPa 0,0 l/m 0 min 2 min 11 W/m 16,1 km/h (3 Bft) 97,87 %
09.07.2023 16:30 26,8 C 25,0 C 18,3 C 74 % 1018,2 hPa 0,0 l/m 0 min 2 min 11 W/m 12,9 km/h (3 Bft) 95,74 %
09.07.2023 16:32 26,7 C 25,0 C 18,3 C 75 % 1018,0 hPa 0,0 l/m 0 min 2 min 11 W/m 16,1 km/h (3 Bft) 93,62 %
09.07.2023 16:34 26,4 C 24,4 C 18,3 C 75 % 1018,1 hPa 0,0 l/m 0 min 2 min 11 W/m 19,3 km/h (3 Bft) 95,74 %
09.07.2023 16:36 26,3 C 24,4 C 18,3 C 78 % 1018,0 hPa 0,0 l/m 0 min 2 min 12 W/m 16,1 km/h (3 Bft) 93,48 %
09.07.2023 16:38 26,1 C 23,9 C 17,8 C 78 % 1018,3 hPa 0,0 l/m 0 min 2 min 11 W/m 16,1 km/h (3 Bft) 97,87 %
09.07.2023 16:40 25,7 C 23,3 C 18,3 C 79 % 1018,5 hPa 0,0 l/m 0 min 2 min 9 W/m 25,7 km/h (4 Bft) 97,87 %
09.07.2023 16:42 25,4 C 23,3 C 18,3 C 81 % 1019,0 hPa 0,2 l/m 0 min 2 min 1 W/m 16,1 km/h (3 Bft) 97,87 %
09.07.2023 16:44 25,2 C 21,7 C 18,3 C 83 % 1019,3 hPa 0,4 l/m 0 min 2 min 0 W/m 32,2 km/h (5 Bft) 97,87 %
09.07.2023 16:46 24,8 C 21,1 C 18,3 C 84 % 1019,4 hPa 0,4 l/m 0 min 2 min 0 W/m 22,5 km/h (4 Bft) 97,87 %
09.07.2023 16:48 24,6 C 21,1 C 18,3 C 87 % 1019,7 hPa 0,6 l/m 0 min 2 min 0 W/m 41,8 km/h (6 Bft) 97,83 %
09.07.2023 16:50 24,2 C 21,1 C 17,8 C 88 % 1019,4 hPa 0,2 l/m 0 min 2 min 0 W/m 29,0 km/h (5 Bft) 95,74 %
09.07.2023 16:52 23,9 C 20,6 C 17,8 C 88 % 1019,3 hPa 0,2 l/m 0 min 2 min 0 W/m 22,5 km/h (4 Bft) 97,87 %
09.07.2023 16:54 23,5 C 20,6 C 17,2 C 88 % 1019,4 hPa 0,4 l/m 0 min 2 min 0 W/m 19,3 km/h (3 Bft) 100,00 %
09.07.2023 16:56 23,2 C 20,0 C 17,2 C 89 % 1019,4 hPa 0,0 l/m 0 min 2 min 0 W/m 22,5 km/h (4 Bft) 100,00 %
09.07.2023 16:58 22,9 C 20,0 C 17,2 C 89 % 1019,3 hPa 0,2 l/m 0 min 2 min 1 W/m 16,1 km/h (3 Bft) 100,00 %
09.07.2023 17:00 22,7 C 20,0 C 16,7 C 89 % 1019,4 hPa 0,2 l/m 0 min 2 min 5 W/m 16,1 km/h (3 Bft) 100,00 %
09.07.2023 17:02 22,6 C 20,0 C 16,7 C 90 % 1019,4 hPa 0,0 l/m 0 min 2 min 6 W/m 6,4 km/h (2 Bft) 100,00 %
09.07.2023 17:04 22,4 C 20,0 C 16,7 C 90 % 1019,4 hPa 0,0 l/m 0 min 2 min 8 W/m 6,4 km/h (2 Bft) 100,00 %
09.07.2023 17:06 22,4 C 20,0 C 16,7 C 90 % 1019,3 hPa 0,0 l/m 0 min 2 min 10 W/m 6,4 km/h (2 Bft) 100,00 %
09.07.2023 17:08 22,3 C 20,6 C 16,7 C 91 % 1019,2 hPa 0,2 l/m 0 min 2 min 12 W/m 9,7 km/h (2 Bft) 100,00 %
09.07.2023 17:10 22,3 C 20,0 C 17,2 C 91 % 1019,3 hPa 0,0 l/m 0 min 2 min 13 W/m 9,7 km/h (2 Bft) 100,00 %
09.07.2023 17:12 22,2 C 20,0 C 16,7 C 91 % 1019,6 hPa 0,0 l/m 0 min 2 min 15 W/m 9,7 km/h (2 Bft) 97,87 %
09.07.2023 17:14 22,1 C 20,0 C 16,7 C 90 % 1019,7 hPa 0,0 l/m 0 min 2 min 17 W/m 12,9 km/h (3 Bft) 100,00 %
09.07.2023 17:16 22,1 C 20,0 C 17,2 C 91 % 1019,7 hPa 0,0 l/m 0 min 2 min 20 W/m 12,9 km/h (3 Bft) 97,87 %
09.07.2023 17:18 22,1 C 20,0 C 17,2 C 91 % 1019,7 hPa 0,0 l/m 0 min 2 min 21 W/m 9,7 km/h (2 Bft) 100,00 %
09.07.2023 17:20 22,1 C 20,6 C 17,2 C 92 % 1019,6 hPa 0,0 l/m 0 min 2 min 23 W/m 6,4 km/h (2 Bft) 100,00 %
09.07.2023 17:22 22,1 C 20,6 C 17,2 C 92 % 1019,4 hPa 0,0 l/m 0 min 2 min 24 W/m 6,4 km/h (2 Bft) 100,00 %
09.07.2023 17:24 22,2 C 20,6 C 17,2 C 92 % 1019,2 hPa 0,0 l/m 0 min 0 min 25 W/m 6,4 km/h (2 Bft) 100,00 %
09.07.2023 17:26 22,2 C 20,6 C 17,2 C 93 % 1019,1 hPa 0,0 l/m 0 min 0 min 25 W/m 6,4 km/h (2 Bft) 97,87 %
09.07.2023 17:28 22,2 C 20,6 C 17,2 C 93 % 1019,0 hPa 0,0 l/m 0 min 0 min 26 W/m 6,4 km/h (2 Bft) 97,83 %
09.07.2023 17:30 22,3 C 20,6 C 17,2 C 93 % 1018,9 hPa 0,0 l/m 0 min 0 min 26 W/m 6,4 km/h (2 Bft) 100,00 %
09.07.2023 17:32 22,3 C 20,6 C 17,2 C 93 % 1018,9 hPa 0,0 l/m 0 min 0 min 30 W/m 6,4 km/h (2 Bft) 97,87 %
09.07.2023 17:34 22,3 C 20,6 C 17,2 C 94 % 1018,8 hPa 0,0 l/m 0 min 0 min 33 W/m 6,4 km/h (2 Bft) 100,00 %
09.07.2023 17:36 22,3 C 21,1 C 17,2 C 94 % 1018,7 hPa 0,0 l/m 0 min 2 min 38 W/m 12,9 km/h (3 Bft) 97,87 %
09.07.2023 17:38 22,4 C 21,1 C 17,2 C 94 % 1018,7 hPa 0,0 l/m 0 min 0 min 43 W/m 6,4 km/h (2 Bft) 97,87 %
09.07.2023 17:40 22,4 C 21,1 C 17,8 C 94 % 1018,6 hPa 0,0 l/m 0 min 0 min 50 W/m 12,9 km/h (3 Bft) 97,87 %
09.07.2023 17:42 22,5 C 21,1 C 17,8 C 95 % 1018,6 hPa 0,0 l/m 0 min 0 min 56 W/m 12,9 km/h (3 Bft) 97,83 %
09.07.2023 17:44 22,6 C 21,1 C 17,8 C 95 % 1018,5 hPa 0,0 l/m 0 min 0 min 63 W/m 12,9 km/h (3 Bft) 97,87 %
09.07.2023 17:46 22,6 C 21,1 C 17,8 C 95 % 1018,4 hPa 0,0 l/m 0 min 0 min 70 W/m 12,9 km/h (3 Bft) 95,74 %
09.07.2023 17:48 22,6 C 21,1 C 17,8 C 95 % 1018,2 hPa 0,0 l/m 0 min 0 min 79 W/m 12,9 km/h (3 Bft) 97,87 %
09.07.2023 17:50 22,6 C 21,7 C 17,8 C 95 % 1018,1 hPa 0,0 l/m 0 min 0 min 87 W/m 6,4 km/h (2 Bft) 97,87 %
09.07.2023 17:58 22,7 C 21,7 C 17,8 C 96 % 1018,0 hPa 0,0 l/m 0 min 0 min 108 W/m 9,7 km/h (2 Bft) 99,00 %
09.07.2023 18:00 22,8 C 21,7 C 17,8 C 96 % 1018,1 hPa 0,0 l/m 0 min 0 min 110 W/m 6,4 km/h (2 Bft) 100,00 %
09.07.2023 18:05 22,8 C 21,7 C 17,8 C 96 % 1018,6 hPa 0,0 l/m 0 min 0 min 100 W/m 3,2 km/h (1 Bft) 98,53 %
09.07.2023 18:06 22,8 C 21,7 C 17,8 C 96 % 1018,7 hPa 0,0 l/m 0 min 0 min 88 W/m 3,2 km/h (1 Bft) 96,43 %
09.07.2023 18:10 22,9 C 22,2 C 18,3 C 96 % 1018,9 hPa 0,0 l/m 0 min 0 min 81 W/m 6,4 km/h (2 Bft) 100,00 %
09.07.2023 18:12 22,9 C 22,2 C 18,3 C 96 % 1018,8 hPa 0,0 l/m 0 min 0 min 81 W/m 9,7 km/h (2 Bft) 93,48 %
09.07.2023 18:16 22,9 C 22,2 C 17,8 C 96 % 1018,7 hPa 0,0 l/m 0 min 0 min 78 W/m 16,1 km/h (3 Bft) 93,62 %
09.07.2023 18:18 22,9 C 21,7 C 17,8 C 96 % 1018,7 hPa 0,0 l/m 0 min 0 min 68 W/m 9,7 km/h (2 Bft) 89,36 %
09.07.2023 18:20 22,9 C 21,7 C 17,8 C 96 % 1018,7 hPa 0,0 l/m 0 min 0 min 59 W/m 6,4 km/h (2 Bft) 95,74 %
09.07.2023 18:22 22,8 C 21,7 C 17,8 C 96 % 1018,6 hPa 0,0 l/m 0 min 0 min 53 W/m 9,7 km/h (2 Bft) 91,49 %
09.07.2023 18:24 22,8 C 21,7 C 17,2 C 95 % 1018,5 hPa 0,0 l/m 0 min 0 min 49 W/m 12,9 km/h (3 Bft) 93,48 %
09.07.2023 18:26 22,7 C 21,1 C 17,2 C 95 % 1018,4 hPa 0,0 l/m 0 min 0 min 46 W/m 9,7 km/h (2 Bft) 93,62 %
09.07.2023 18:28 22,7 C 21,1 C 17,2 C 95 % 1018,4 hPa 0,0 l/m 0 min 0 min 44 W/m 6,4 km/h (2 Bft) 93,62 %
09.07.2023 18:30 22,6 C 21,1 C 17,2 C 95 % 1018,5 hPa 0,0 l/m 0 min 0 min 44 W/m 9,7 km/h (2 Bft) 91,49 %
09.07.2023 18:32 22,5 C 21,1 C 17,2 C 95 % 1018,5 hPa 0,0 l/m 0 min 0 min 45 W/m 9,7 km/h (2 Bft) 95,74 %
09.07.2023 18:34 22,4 C 21,1 C 17,2 C 95 % 1018,5 hPa 0,0 l/m 0 min 0 min 50 W/m 12,9 km/h (3 Bft) 95,74 %
09.07.2023 18:36 22,4 C 21,1 C 17,2 C 95 % 1018,4 hPa 0,0 l/m 0 min 0 min 54 W/m 9,7 km/h (2 Bft) 93,62 %
09.07.2023 18:38 22,4 C 21,1 C 17,2 C 95 % 1018,4 hPa 0,0 l/m 0 min 0 min 56 W/m 12,9 km/h (3 Bft) 95,74 %
09.07.2023 18:40 22,4 C 21,1 C 17,2 C 95 % 1018,4 hPa 0,0 l/m 0 min 0 min 55 W/m 6,4 km/h (2 Bft) 95,74 %
09.07.2023 18:42 22,3 C 21,1 C 17,2 C 95 % 1018,3 hPa 0,0 l/m 0 min 0 min 54 W/m 6,4 km/h (2 Bft) 94,29 %
09.07.2023 18:44 22,3 C 21,1 C 17,2 C 96 % 1018,3 hPa 0,0 l/m 0 min 0 min 54 W/m 9,7 km/h (2 Bft) 96,36 %
09.07.2023 18:46 22,3 C 21,1 C 17,2 C 96 % 1018,3 hPa 0,0 l/m 0 min 0 min 57 W/m 3,2 km/h (1 Bft) 96,00 %
09.07.2023 18:48 22,3 C 21,1 C 17,2 C 96 % 1018,3 hPa 0,0 l/m 0 min 0 min 62 W/m 6,4 km/h (2 Bft) 95,74 %
09.07.2023 18:50 22,3 C 21,1 C 17,2 C 96 % 1018,4 hPa 0,0 l/m 0 min 0 min 82 W/m 3,2 km/h (1 Bft) 97,87 %
09.07.2023 18:52 22,3 C 21,1 C 17,2 C 96 % 1018,5 hPa 0,0 l/m 0 min 0 min 90 W/m 3,2 km/h (1 Bft) 97,83 %
09.07.2023 18:54 22,4 C 21,7 C 17,8 C 96 % 1018,6 hPa 0,0 l/m 0 min 0 min 101 W/m 3,2 km/h (1 Bft) 97,87 %
09.07.2023 18:56 22,4 C 21,7 C 17,8 C 96 % 1018,6 hPa 0,0 l/m 0 min 0 min 125 W/m 3,2 km/h (1 Bft) 97,87 %
09.07.2023 18:58 22,4 C 21,7 C 17,8 C 96 % 1018,5 hPa 0,0 l/m 0 min 0 min 132 W/m 3,2 km/h (1 Bft) 100,00 %
09.07.2023 19:00 22,4 C 21,7 C 17,8 C 96 % 1018,4 hPa 0,0 l/m 0 min 0 min 130 W/m 3,2 km/h (1 Bft) 98,39 %
09.07.2023 19:02 22,5 C 21,7 C 17,8 C 96 % 1018,4 hPa 0,0 l/m 0 min 0 min 121 W/m 6,4 km/h (2 Bft) 100,00 %
09.07.2023 19:04 22,6 C 22,2 C 17,8 C 96 % 1018,4 hPa 0,0 l/m 0 min 0 min 113 W/m 3,2 km/h (1 Bft) 100,00 %
09.07.2023 19:06 22,6 C 22,2 C 17,8 C 96 % 1018,4 hPa 0,0 l/m 0 min 0 min 119 W/m 0,0 km/h (0 Bft) 98,28 %
09.07.2023 19:08 22,6 C 22,2 C 17,8 C 96 % 1018,3 hPa 0,0 l/m 0 min 0 min 121 W/m 0,0 km/h (0 Bft) 100,00 %
09.07.2023 19:10 22,6 C 22,2 C 17,8 C 96 % 1018,3 hPa 0,0 l/m 0 min 0 min 128 W/m 0,0 km/h (0 Bft) 100,00 %
09.07.2023 19:12 22,7 C 22,2 C 17,8 C 96 % 1018,2 hPa 0,0 l/m 0 min 0 min 139 W/m 3,2 km/h (1 Bft) 100,00 %
09.07.2023 19:14 22,7 C 22,2 C 17,8 C 96 % 1018,2 hPa 0,0 l/m 0 min 0 min 139 W/m 3,2 km/h (1 Bft) 100,00 %
09.07.2023 19:16 22,7 C 22,2 C 17,8 C 96 % 1018,2 hPa 0,0 l/m 0 min 0 min 139 W/m 0,0 km/h (0 Bft) 100,00 %
09.07.2023 19:18 22,7 C 22,2 C 17,8 C 96 % 1018,2 hPa 0,0 l/m 0 min 0 min 145 W/m 3,2 km/h (1 Bft) 100,00 %
09.07.2023 19:20 22,7 C 22,2 C 17,8 C 96 % 1018,4 hPa 0,0 l/m 2 min 0 min 182 W/m 3,2 km/h (1 Bft) 100,00 %
09.07.2023 19:22 22,7 C 23,3 C 17,8 C 96 % 1018,4 hPa 0,0 l/m 2 min 0 min 249 W/m 0,0 km/h (0 Bft) 100,00 %
09.07.2023 19:24 22,7 C 23,9 C 17,8 C 96 % 1018,4 hPa 0,0 l/m 2 min 0 min 270 W/m 3,2 km/h (1 Bft) 100,00 %
09.07.2023 19:26 22,8 C 23,9 C 17,8 C 96 % 1018,4 hPa 0,0 l/m 2 min 0 min 258 W/m 3,2 km/h (1 Bft) 97,87 %
09.07.2023 19:28 22,8 C 23,9 C 17,8 C 96 % 1018,4 hPa 0,0 l/m 2 min 0 min 251 W/m 0,0 km/h (0 Bft) 100,00 %
09.07.2023 19:30 22,9 C 24,4 C 18,3 C 96 % 1018,5 hPa 0,0 l/m 2 min 0 min 249 W/m 0,0 km/h (0 Bft) 100,00 %
09.07.2023 19:32 23,1 C 24,4 C 18,3 C 96 % 1018,5 hPa 0,0 l/m 2 min 0 min 257 W/m 0,0 km/h (0 Bft) 100,00 %
09.07.2023 19:34 23,1 C 24,4 C 18,3 C 96 % 1018,4 hPa 0,0 l/m 2 min 0 min 270 W/m 0,0 km/h (0 Bft) 97,87 %
09.07.2023 19:36 23,2 C 24,4 C 18,3 C 96 % 1018,4 hPa 0,0 l/m 2 min 0 min 275 W/m 3,2 km/h (1 Bft) 100,00 %
09.07.2023 19:38 23,3 C 24,4 C 18,3 C 96 % 1018,4 hPa 0,0 l/m 2 min 0 min 232 W/m 0,0 km/h (0 Bft) 100,00 %
09.07.2023 19:40 23,4 C 23,9 C 17,8 C 95 % 1018,4 hPa 0,0 l/m 2 min 0 min 236 W/m 3,2 km/h (1 Bft) 100,00 %
09.07.2023 19:42 23,4 C 23,3 C 17,8 C 95 % 1018,4 hPa 0,0 l/m 2 min 0 min 249 W/m 3,2 km/h (1 Bft) 100,00 %
09.07.2023 19:44 23,4 C 23,3 C 18,3 C 95 % 1018,4 hPa 0,0 l/m 2 min 0 min 249 W/m 3,2 km/h (1 Bft) 100,00 %
09.07.2023 19:46 23,5 C 23,3 C 18,3 C 94 % 1018,4 hPa 0,0 l/m 2 min 0 min 227 W/m 3,2 km/h (1 Bft) 100,00 %
09.07.2023 19:48 23,6 C 23,3 C 18,3 C 94 % 1018,4 hPa 0,0 l/m 2 min 0 min 190 W/m 3,2 km/h (1 Bft) 97,87 %
09.07.2023 19:50 23,6 C 23,3 C 18,3 C 94 % 1018,4 hPa 0,0 l/m 2 min 0 min 251 W/m 3,2 km/h (1 Bft) 100,00 %
09.07.2023 19:52 23,6 C 23,3 C 17,8 C 94 % 1018,4 hPa 0,0 l/m 2 min 0 min 215 W/m 3,2 km/h (1 Bft) 97,87 %
09.07.2023 19:54 23,6 C 23,3 C 17,8 C 93 % 1018,4 hPa 0,0 l/m 2 min 0 min 208 W/m 3,2 km/h (1 Bft) 100,00 %
09.07.2023 19:56 23,7 C 22,8 C 17,8 C 92 % 1018,4 hPa 0,0 l/m 2 min 0 min 188 W/m 3,2 km/h (1 Bft) 97,87 %
09.07.2023 19:58 23,7 C 22,8 C 17,8 C 92 % 1018,4 hPa 0,0 l/m 2 min 0 min 162 W/m 3,2 km/h (1 Bft) 100,00 %
09.07.2023 20:00 23,8 C 23,3 C 17,8 C 92 % 1018,3 hPa 0,0 l/m 2 min 0 min 147 W/m 3,2 km/h (1 Bft) 100,00 %
09.07.2023 20:02 23,8 C 23,3 C 17,8 C 91 % 1018,2 hPa 0,0 l/m 2 min 0 min 138 W/m 3,2 km/h (1 Bft) 100,00 %
09.07.2023 20:04 23,8 C 22,8 C 17,8 C 91 % 1018,2 hPa 0,0 l/m 2 min 0 min 135 W/m 3,2 km/h (1 Bft) 100,00 %
09.07.2023 20:06 23,9 C 22,8 C 17,8 C 91 % 1018,2 hPa 0,0 l/m 2 min 0 min 129 W/m 0,0 km/h (0 Bft) 98,15 %
09.07.2023 20:08 23,9 C 22,8 C 18,3 C 91 % 1018,2 hPa 0,0 l/m 2 min 0 min 124 W/m 3,2 km/h (1 Bft) 100,00 %
09.07.2023 20:10 24,0 C 22,8 C 18,3 C 90 % 1018,2 hPa 0,0 l/m 2 min 0 min 124 W/m 0,0 km/h (0 Bft) 100,00 %
09.07.2023 20:12 24,1 C 22,8 C 18,3 C 90 % 1018,2 hPa 0,0 l/m 2 min 0 min 114 W/m 3,2 km/h (1 Bft) 97,87 %
09.07.2023 20:14 24,1 C 22,8 C 17,8 C 90 % 1018,2 hPa 0,0 l/m 0 min 0 min 100 W/m 0,0 km/h (0 Bft) 97,87 %
09.07.2023 20:16 24,1 C 23,3 C 17,8 C 90 % 1018,1 hPa 0,0 l/m 0 min 0 min 84 W/m 3,2 km/h (1 Bft) 97,87 %
09.07.2023 20:18 24,2 C 23,3 C 17,8 C 89 % 1018,1 hPa 0,0 l/m 0 min 0 min 74 W/m 3,2 km/h (1 Bft) 95,74 %
09.07.2023 20:20 24,2 C 23,3 C 17,8 C 89 % 1018,1 hPa 0,0 l/m 0 min 0 min 66 W/m 3,2 km/h (1 Bft) 97,87 %
09.07.2023 20:22 24,2 C 23,3 C 17,8 C 89 % 1018,1 hPa 0,0 l/m 0 min 0 min 63 W/m 0,0 km/h (0 Bft) 93,62 %
09.07.2023 20:24 24,2 C 23,3 C 17,8 C 89 % 1018,1 hPa 0,0 l/m 0 min 0 min 65 W/m 3,2 km/h (1 Bft) 97,83 %
09.07.2023 20:26 24,2 C 23,3 C 17,8 C 89 % 1018,1 hPa 0,0 l/m 0 min 0 min 61 W/m 3,2 km/h (1 Bft) 97,87 %
09.07.2023 20:28 24,2 C 23,3 C 17,8 C 89 % 1018,0 hPa 0,0 l/m 0 min 0 min 53 W/m 3,2 km/h (1 Bft) 97,87 %
09.07.2023 20:30 24,2 C 23,3 C 17,8 C 89 % 1018,0 hPa 0,0 l/m 0 min 0 min 49 W/m 3,2 km/h (1 Bft) 95,74 %
09.07.2023 20:32 24,2 C 23,3 C 17,8 C 89 % 1018,0 hPa 0,0 l/m 0 min 0 min 46 W/m 0,0 km/h (0 Bft) 97,87 %
09.07.2023 20:34 24,2 C 22,8 C 17,8 C 89 % 1017,9 hPa 0,0 l/m 0 min 0 min 46 W/m 0,0 km/h (0 Bft) 97,87 %
09.07.2023 20:36 24,2 C 22,8 C 17,8 C 90 % 1017,9 hPa 0,0 l/m 0 min 0 min 45 W/m 0,0 km/h (0 Bft) 97,83 %
09.07.2023 20:38 24,2 C 22,8 C 18,3 C 90 % 1017,9 hPa 0,0 l/m 0 min 0 min 42 W/m 3,2 km/h (1 Bft) 93,62 %
09.07.2023 20:40 24,2 C 22,8 C 17,8 C 90 % 1017,9 hPa 0,0 l/m 0 min 0 min 39 W/m 3,2 km/h (1 Bft) 93,62 %
09.07.2023 20:42 24,1 C 22,8 C 17,8 C 90 % 1017,9 hPa 0,0 l/m 0 min 0 min 35 W/m 3,2 km/h (1 Bft) 93,62 %
09.07.2023 20:44 24,1 C 22,8 C 17,8 C 90 % 1017,9 hPa 0,0 l/m 0 min 0 min 33 W/m 3,2 km/h (1 Bft) 95,74 %
09.07.2023 20:46 24,0 C 22,8 C 17,8 C 90 % 1017,9 hPa 0,0 l/m 0 min 0 min 30 W/m 3,2 km/h (1 Bft) 95,74 %
09.07.2023 20:48 24,0 C 22,8 C 17,8 C 90 % 1017,8 hPa 0,0 l/m 0 min 0 min 27 W/m 3,2 km/h (1 Bft) 93,62 %
09.07.2023 20:50 23,9 C 22,8 C 17,8 C 90 % 1017,9 hPa 0,0 l/m 0 min 0 min 26 W/m 3,2 km/h (1 Bft) 95,65 %
09.07.2023 20:52 23,9 C 22,2 C 17,8 C 90 % 1017,9 hPa 0,0 l/m 0 min 0 min 26 W/m 3,2 km/h (1 Bft) 95,74 %
09.07.2023 20:54 23,8 C 22,2 C 17,8 C 90 % 1017,9 hPa 0,0 l/m 0 min 0 min 30 W/m 3,2 km/h (1 Bft) 95,74 %
09.07.2023 20:56 23,8 C 22,2 C 17,8 C 90 % 1018,0 hPa 0,0 l/m 0 min 0 min 30 W/m 3,2 km/h (1 Bft) 95,74 %
09.07.2023 20:58 23,8 C 22,2 C 17,8 C 91 % 1017,9 hPa 0,0 l/m 0 min 0 min 30 W/m 6,4 km/h (2 Bft) 95,74 %
09.07.2023 21:00 23,7 C 22,2 C 17,8 C 91 % 1018,0 hPa 0,0 l/m 0 min 0 min 29 W/m 3,2 km/h (1 Bft) 95,74 %
09.07.2023 21:02 23,7 C 22,2 C 17,8 C 91 % 1018,0 hPa 0,0 l/m 0 min 0 min 27 W/m 3,2 km/h (1 Bft) 93,62 %
09.07.2023 21:04 23,7 C 22,2 C 17,8 C 91 % 1018,0 hPa 0,0 l/m 0 min 0 min 25 W/m 6,4 km/h (2 Bft) 95,24 %
09.07.2023 21:06 23,7 C 22,2 C 17,8 C 91 % 1018,0 hPa 0,0 l/m 0 min 0 min 23 W/m 6,4 km/h (2 Bft) 93,62 %
09.07.2023 21:08 23,6 C 22,2 C 17,8 C 91 % 1018,0 hPa 0,0 l/m 0 min 0 min 20 W/m 6,4 km/h (2 Bft) 95,65 %
09.07.2023 21:10 23,6 C 22,2 C 17,8 C 92 % 1018,0 hPa 0,0 l/m 0 min 0 min 18 W/m 3,2 km/h (1 Bft) 93,62 %
09.07.2023 21:12 23,6 C 22,2 C 17,8 C 92 % 1018,0 hPa 0,0 l/m 0 min 0 min 18 W/m 6,4 km/h (2 Bft) 95,74 %
09.07.2023 21:14 23,6 C 22,2 C 17,8 C 92 % 1018,1 hPa 0,0 l/m 0 min 0 min 17 W/m 12,9 km/h (3 Bft) 95,74 %
09.07.2023 21:15 23,6 C 22,2 C 17,8 C 92 % 1018,0 hPa 0,0 l/m 0 min 0 min 17 W/m 12,9 km/h (3 Bft) 98,25 %
09.07.2023 21:20 23,4 C 22,2 C 17,8 C 92 % 1018,1 hPa 0,0 l/m 0 min 0 min 11 W/m 6,4 km/h (2 Bft) 95,83 %
09.07.2023 21:22 23,4 C 22,2 C 17,8 C 92 % 1018,2 hPa 0,0 l/m 0 min 0 min 10 W/m 6,4 km/h (2 Bft) 93,62 %
09.07.2023 21:24 23,3 C 22,2 C 17,8 C 92 % 1018,3 hPa 0,0 l/m 0 min 0 min 7 W/m 3,2 km/h (1 Bft) 97,83 %
09.07.2023 21:26 23,3 C 22,2 C 17,8 C 92 % 1018,3 hPa 0,0 l/m 0 min 0 min 7 W/m 6,4 km/h (2 Bft) 93,62 %
09.07.2023 21:28 23,3 C 22,2 C 17,8 C 93 % 1018,4 hPa 0,0 l/m 0 min 0 min 5 W/m 3,2 km/h (1 Bft) 95,74 %
09.07.2023 21:30 23,2 C 22,2 C 17,8 C 93 % 1018,4 hPa 0,0 l/m 0 min 0 min 5 W/m 3,2 km/h (1 Bft) 95,74 %
09.07.2023 21:32 23,2 C 22,2 C 17,8 C 93 % 1018,4 hPa 0,0 l/m 0 min 0 min 5 W/m 3,2 km/h (1 Bft) 97,87 %
09.07.2023 21:34 23,2 C 22,2 C 17,8 C 93 % 1018,4 hPa 0,0 l/m 0 min 0 min 1 W/m 6,4 km/h (2 Bft) 100,00 %
09.07.2023 21:36 23,2 C 22,2 C 17,8 C 93 % 1018,5 hPa 0,0 l/m 0 min 0 min 0 W/m 6,4 km/h (2 Bft) 100,00 %
09.07.2023 21:38 23,1 C 22,2 C 17,8 C 93 % 1018,5 hPa 0,0 l/m 0 min 0 min 0 W/m 3,2 km/h (1 Bft) 97,83 %
09.07.2023 21:40 23,1 C 22,2 C 18,3 C 93 % 1018,5 hPa 0,0 l/m 0 min 0 min 0 W/m 3,2 km/h (1 Bft) 100,00 %
09.07.2023 21:42 23,1 C 22,2 C 18,3 C 93 % 1018,5 hPa 0,0 l/m 0 min 0 min 0 W/m 3,2 km/h (1 Bft) 95,74 %
09.07.2023 21:44 23,1 C 22,2 C 18,3 C 94 % 1018,5 hPa 0,0 l/m 0 min 0 min 0 W/m 3,2 km/h (1 Bft) 100,00 %
09.07.2023 21:46 23,1 C 21,7 C 18,3 C 94 % 1018,6 hPa 0,0 l/m 0 min 0 min 0 W/m 6,4 km/h (2 Bft) 95,74 %
09.07.2023 21:48 23,1 C 21,7 C 18,3 C 94 % 1018,5 hPa 0,0 l/m 0 min 0 min 0 W/m 3,2 km/h (1 Bft) 100,00 %
09.07.2023 21:50 23,1 C 21,7 C 18,3 C 94 % 1018,6 hPa 0,0 l/m 0 min 0 min 0 W/m 3,2 km/h (1 Bft) 100,00 %
09.07.2023 21:52 23,1 C 21,7 C 18,3 C 94 % 1018,6 hPa 0,0 l/m 0 min 0 min 0 W/m 3,2 km/h (1 Bft) 100,00 %
09.07.2023 21:54 23,1 C 21,7 C 18,3 C 94 % 1018,6 hPa 0,0 l/m 0 min 0 min 0 W/m 3,2 km/h (1 Bft) 100,00 %
09.07.2023 21:56 23,1 C 21,7 C 18,3 C 94 % 1018,7 hPa 0,0 l/m 0 min 0 min 0 W/m 3,2 km/h (1 Bft) 95,74 %
09.07.2023 21:58 23,0 C 21,7 C 18,3 C 94 % 1018,7 hPa 0,0 l/m 0 min 0 min 0 W/m 3,2 km/h (1 Bft) 97,87 %
09.07.2023 22:00 23,0 C 21,7 C 18,3 C 94 % 1018,7 hPa 0,0 l/m 0 min 0 min 0 W/m 3,2 km/h (1 Bft) 100,00 %
09.07.2023 22:02 23,0 C 21,7 C 18,3 C 94 % 1018,7 hPa 0,0 l/m 0 min 0 min 0 W/m 3,2 km/h (1 Bft) 100,00 %
09.07.2023 22:04 22,9 C 21,7 C 18,3 C 94 % 1018,8 hPa 0,0 l/m 0 min 0 min 0 W/m 3,2 km/h (1 Bft) 100,00 %
09.07.2023 22:06 22,9 C 21,7 C 18,3 C 94 % 1018,8 hPa 0,0 l/m 0 min 0 min 0 W/m 0,0 km/h (0 Bft) 100,00 %
09.07.2023 22:08 22,9 C 21,7 C 18,3 C 94 % 1018,8 hPa 0,0 l/m 0 min 0 min 0 W/m 0,0 km/h (0 Bft) 97,14 %
09.07.2023 22:10 22,9 C 21,7 C 18,3 C 94 % 1018,8 hPa 0,0 l/m 0 min 0 min 0 W/m 3,2 km/h (1 Bft) 100,00 %
09.07.2023 22:12 22,9 C 21,7 C 18,3 C 94 % 1018,8 hPa 0,0 l/m 0 min 0 min 0 W/m 0,0 km/h (0 Bft) 97,87 %
09.07.2023 22:14 22,9 C 21,7 C 18,3 C 94 % 1018,9 hPa 0,0 l/m 0 min 0 min 0 W/m 3,2 km/h (1 Bft) 97,87 %
09.07.2023 22:16 22,9 C 21,7 C 18,3 C 94 % 1018,9 hPa 0,0 l/m 0 min 0 min 0 W/m 3,2 km/h (1 Bft) 97,83 %
09.07.2023 22:18 22,8 C 21,7 C 18,3 C 94 % 1019,0 hPa 0,0 l/m 0 min 0 min 0 W/m 3,2 km/h (1 Bft) 97,87 %
09.07.2023 22:20 22,8 C 21,7 C 18,3 C 94 % 1019,0 hPa 0,0 l/m 0 min 0 min 0 W/m 3,2 km/h (1 Bft) 97,87 %
09.07.2023 22:22 22,8 C 21,7 C 18,3 C 94 % 1018,9 hPa 0,0 l/m 0 min 0 min 0 W/m 3,2 km/h (1 Bft) 97,87 %
09.07.2023 22:24 22,8 C 21,7 C 18,3 C 94 % 1018,9 hPa 0,0 l/m 0 min 0 min 0 W/m 0,0 km/h (0 Bft) 97,87 %
09.07.2023 22:26 22,8 C 21,7 C 18,3 C 95 % 1018,9 hPa 0,0 l/m 0 min 0 min 0 W/m 0,0 km/h (0 Bft) 97,87 %
09.07.2023 22:28 22,8 C 21,7 C 18,3 C 95 % 1018,9 hPa 0,0 l/m 0 min 0 min 0 W/m 0,0 km/h (0 Bft) 97,83 %
09.07.2023 22:30 22,8 C 21,7 C 18,3 C 95 % 1018,9 hPa 0,0 l/m 0 min 0 min 0 W/m 3,2 km/h (1 Bft) 97,87 %
09.07.2023 22:32 22,8 C 21,7 C 18,3 C 95 % 1018,8 hPa 0,0 l/m 0 min 0 min 0 W/m 0,0 km/h (0 Bft) 95,74 %
09.07.2023 22:34 22,8 C 21,7 C 18,3 C 95 % 1018,8 hPa 0,0 l/m 0 min 0 min 0 W/m 6,4 km/h (2 Bft) 97,87 %
09.07.2023 22:36 22,7 C 21,1 C 18,3 C 95 % 1018,8 hPa 0,0 l/m 0 min 0 min 0 W/m 3,2 km/h (1 Bft) 97,87 %
09.07.2023 22:38 22,7 C 21,1 C 18,3 C 95 % 1018,8 hPa 0,0 l/m 0 min 0 min 0 W/m 0,0 km/h (0 Bft) 95,74 %
09.07.2023 22:40 22,7 C 21,1 C 18,3 C 95 % 1018,9 hPa 0,0 l/m 0 min 0 min 0 W/m 0,0 km/h (0 Bft) 97,87 %
09.07.2023 22:42 22,7 C 21,1 C 18,3 C 95 % 1018,8 hPa 0,0 l/m 0 min 0 min 0 W/m 3,2 km/h (1 Bft) 97,87 %
09.07.2023 22:44 22,7 C 21,1 C 18,3 C 95 % 1018,8 hPa 0,0 l/m 0 min 0 min 0 W/m 3,2 km/h (1 Bft) 100,00 %
09.07.2023 22:46 22,7 C 21,1 C 18,3 C 95 % 1018,9 hPa 0,0 l/m 0 min 0 min 0 W/m 3,2 km/h (1 Bft) 97,87 %
09.07.2023 22:48 22,7 C 21,1 C 18,3 C 95 % 1018,9 hPa 0,0 l/m 0 min 0 min 0 W/m 0,0 km/h (0 Bft) 100,00 %
09.07.2023 22:50 22,6 C 21,1 C 18,3 C 95 % 1018,9 hPa 0,0 l/m 0 min 0 min 0 W/m 6,4 km/h (2 Bft) 100,00 %
09.07.2023 22:52 22,6 C 21,1 C 18,3 C 95 % 1018,8 hPa 0,0 l/m 0 min 0 min 0 W/m 0,0 km/h (0 Bft) 97,87 %
09.07.2023 22:54 22,6 C 21,1 C 17,8 C 95 % 1018,8 hPa 0,0 l/m 0 min 0 min 0 W/m 9,7 km/h (2 Bft) 100,00 %
09.07.2023 22:56 22,6 C 21,1 C 17,8 C 95 % 1018,8 hPa 0,0 l/m 0 min 0 min 0 W/m 6,4 km/h (2 Bft) 100,00 %
09.07.2023 22:58 22,6 C 21,1 C 17,8 C 95 % 1018,8 hPa 0,0 l/m 0 min 0 min 0 W/m 6,4 km/h (2 Bft) 100,00 %
09.07.2023 23:00 22,6 C 21,1 C 17,8 C 95 % 1018,9 hPa 0,0 l/m 0 min 0 min 0 W/m 6,4 km/h (2 Bft) 97,83 %
09.07.2023 23:02 22,6 C 21,1 C 17,8 C 95 % 1018,9 hPa 0,0 l/m 0 min 0 min 0 W/m 3,2 km/h (1 Bft) 95,74 %
09.07.2023 23:04 22,5 C 21,1 C 17,8 C 95 % 1018,9 hPa 0,0 l/m 0 min 0 min 0 W/m 3,2 km/h (1 Bft) 100,00 %
09.07.2023 23:06 22,5 C 21,1 C 17,8 C 95 % 1018,9 hPa 0,0 l/m 0 min 0 min 0 W/m 0,0 km/h (0 Bft) 98,28 %
09.07.2023 23:08 22,5 C 21,1 C 17,8 C 95 % 1018,9 hPa 0,0 l/m 0 min 0 min 0 W/m 3,2 km/h (1 Bft) 100,00 %
09.07.2023 23:10 22,4 C 21,1 C 17,8 C 95 % 1018,9 hPa 0,0 l/m 0 min 0 min 0 W/m 3,2 km/h (1 Bft) 100,00 %
09.07.2023 23:12 22,4 C 21,1 C 17,8 C 95 % 1018,9 hPa 0,0 l/m 0 min 0 min 0 W/m 0,0 km/h (0 Bft) 97,87 %
09.07.2023 23:14 22,4 C 21,1 C 17,8 C 95 % 1019,0 hPa 0,0 l/m 0 min 0 min 0 W/m 3,2 km/h (1 Bft) 100,00 %
09.07.2023 23:16 22,4 C 21,1 C 17,8 C 95 % 1019,0 hPa 0,0 l/m 0 min 0 min 0 W/m 6,4 km/h (2 Bft) 100,00 %
09.07.2023 23:18 22,3 C 21,1 C 17,8 C 95 % 1019,1 hPa 0,0 l/m 0 min 0 min 0 W/m 3,2 km/h (1 Bft) 97,87 %
09.07.2023 23:20 22,3 C 21,1 C 17,8 C 95 % 1019,0 hPa 0,0 l/m 0 min 0 min 0 W/m 0,0 km/h (0 Bft) 100,00 %
09.07.2023 23:22 22,3 C 21,1 C 17,8 C 95 % 1019,0 hPa 0,0 l/m 0 min 0 min 0 W/m 0,0 km/h (0 Bft) 100,00 %
09.07.2023 23:24 22,3 C 21,1 C 17,8 C 95 % 1019,1 hPa 0,0 l/m 0 min 0 min 0 W/m 6,4 km/h (2 Bft) 100,00 %
09.07.2023 23:26 22,3 C 21,1 C 17,8 C 95 % 1019,1 hPa 0,0 l/m 0 min 0 min 0 W/m 9,7 km/h (2 Bft) 97,87 %
09.07.2023 23:28 22,2 C 21,1 C 17,8 C 95 % 1019,1 hPa 0,0 l/m 0 min 0 min 0 W/m 9,7 km/h (2 Bft) 100,00 %
09.07.2023 23:30 22,2 C 21,1 C 17,8 C 95 % 1019,1 hPa 0,0 l/m 0 min 0 min 0 W/m 9,7 km/h (2 Bft) 100,00 %
09.07.2023 23:32 22,2 C 21,1 C 17,8 C 95 % 1019,2 hPa 0,0 l/m 0 min 0 min 0 W/m 3,2 km/h (1 Bft) 97,87 %
09.07.2023 23:34 22,2 C 21,1 C 17,8 C 95 % 1019,2 hPa 0,0 l/m 0 min 0 min 0 W/m 3,2 km/h (1 Bft) 97,87 %
09.07.2023 23:36 22,2 C 21,1 C 17,8 C 95 % 1019,2 hPa 0,0 l/m 0 min 0 min 0 W/m 6,4 km/h (2 Bft) 95,65 %
09.07.2023 23:38 22,2 C 21,1 C 17,8 C 95 % 1019,3 hPa 0,0 l/m 0 min 0 min 0 W/m 3,2 km/h (1 Bft) 97,87 %
09.07.2023 23:40 22,2 C 21,1 C 17,8 C 96 % 1019,3 hPa 0,0 l/m 0 min 0 min 0 W/m 12,9 km/h (3 Bft) 97,87 %
09.07.2023 23:42 22,2 C 21,1 C 17,8 C 96 % 1019,3 hPa 0,0 l/m 0 min 0 min 0 W/m 9,7 km/h (2 Bft) 95,74 %
09.07.2023 23:44 22,1 C 21,1 C 17,8 C 96 % 1019,3 hPa 0,0 l/m 0 min 0 min 0 W/m 9,7 km/h (2 Bft) 95,74 %
09.07.2023 23:46 22,1 C 21,1 C 17,8 C 96 % 1019,3 hPa 0,0 l/m 0 min 0 min 0 W/m 6,4 km/h (2 Bft) 94,44 %
09.07.2023 23:48 22,1 C 21,1 C 17,8 C 96 % 1019,4 hPa 0,0 l/m 0 min 0 min 0 W/m 9,7 km/h (2 Bft) 95,74 %
09.07.2023 23:50 22,1 C 21,1 C 17,8 C 96 % 1019,4 hPa 0,0 l/m 0 min 0 min 0 W/m 6,4 km/h (2 Bft) 95,74 %
09.07.2023 23:52 22,1 C 21,1 C 17,8 C 96 % 1019,4 hPa 0,0 l/m 0 min 0 min 0 W/m 12,9 km/h (3 Bft) 91,49 %
09.07.2023 23:54 22,1 C 21,1 C 17,8 C 96 % 1019,4 hPa 0,0 l/m 0 min 0 min 0 W/m 6,4 km/h (2 Bft) 95,74 %
09.07.2023 23:56 22,1 C 21,1 C 17,8 C 96 % 1019,4 hPa 0,0 l/m 0 min 0 min 0 W/m 12,9 km/h (3 Bft) 93,48 %
09.07.2023 23:58 22,0 C 21,1 C 17,8 C 96 % 1019,4 hPa 0,0 l/m 0 min 0 min 0 W/m 19,3 km/h (3 Bft) 93,62 %
_ Min-Zeit 06:04 05:34 05:40 13:12 15:26 - - - - 02:00 05:32
Minimum _ 21,1 C 20,0 C 16,7 C 43 % 1016,0 hPa - - - - 0,0 km/h (0 Bft) 89,36 %
_ Max-Zeit 13:30 13:22 12:44 17:58 16:48 16:48 08:35 15:48 13:06 16:48 00:10
Maximum _ 36,3 C 40,6 C 38,3 C 96 % 1019,7 hPa 0,6 l/m 5 min 2 min 876 W/m 41,8 km/h
W (6 Bft)
100,00 %
Durchschnitt _ 26,0 C 25,9 C 21,7 C 74 % 1018,0 hPa #4,0 l/m #7:11 h #1:18 h 297 W/m 6,6 km/h (2 Bft) 97,58 %
© 2023 W. Hausmann